<?xml version="1.0" encoding="UTF-8" standalone="no" ?>
<gpx xmlns="http://www.topografix.com/GPX/1/1" xmlns:xsi="http://www.w3.org/2001/XMLSchema-instance" xsi:schemaLocation="http://www.topografix.com/GPX/1/1 http://www.topografix.com/GPX/1/1/gpx.xsd" version="1.1" creator="VisuGPX - https://www.visugpx.com">
  <metadata>
    <name>Tour et ascension du cheiron</name>
    <desc><![CDATA[Topo VTT alpes-maritimes, "tour du cheiron" avec un détour par le Jérusalem.]]></desc>
  </metadata>
  <trk>
    <name><![CDATA[Track 001]]></name>
    <trkseg>
      <trkpt lat="43.79397" lon="7.04551">
        <ele>1005.7</ele>
        <time>2009-10-24T07:32:08Z</time>
      </trkpt>
      <trkpt lat="43.79409" lon="7.04458">
        <ele>1031.6</ele>
        <time>2009-10-24T07:35:58Z</time>
      </trkpt>
      <trkpt lat="43.79415" lon="7.04415">
        <ele>1034</ele>
        <time>2009-10-24T07:36:05Z</time>
      </trkpt>
      <trkpt lat="43.79423" lon="7.04376">
        <ele>1035</ele>
        <time>2009-10-24T07:36:10Z</time>
      </trkpt>
      <trkpt lat="43.79437" lon="7.04328">
        <ele>1030.7</ele>
        <time>2009-10-24T07:36:14Z</time>
      </trkpt>
      <trkpt lat="43.79457" lon="7.04296">
        <ele>1033.1</ele>
        <time>2009-10-24T07:36:19Z</time>
      </trkpt>
      <trkpt lat="43.79478" lon="7.04264">
        <ele>1034</ele>
        <time>2009-10-24T07:36:24Z</time>
      </trkpt>
      <trkpt lat="43.79506" lon="7.04241">
        <ele>1035.5</ele>
        <time>2009-10-24T07:36:29Z</time>
      </trkpt>
      <trkpt lat="43.79534" lon="7.04225">
        <ele>1037.9</ele>
        <time>2009-10-24T07:36:34Z</time>
      </trkpt>
      <trkpt lat="43.79534" lon="7.04183">
        <ele>1037.4</ele>
        <time>2009-10-24T07:36:39Z</time>
      </trkpt>
      <trkpt lat="43.7952" lon="7.04144">
        <ele>1036.9</ele>
        <time>2009-10-24T07:36:43Z</time>
      </trkpt>
      <trkpt lat="43.79509" lon="7.04107">
        <ele>1036.4</ele>
        <time>2009-10-24T07:36:46Z</time>
      </trkpt>
      <trkpt lat="43.79501" lon="7.04064">
        <ele>1031.6</ele>
        <time>2009-10-24T07:36:50Z</time>
      </trkpt>
      <trkpt lat="43.79501" lon="7.0405">
        <ele>1035</ele>
        <time>2009-10-24T07:37:03Z</time>
      </trkpt>
      <trkpt lat="43.79512" lon="7.04074">
        <ele>1036.9</ele>
        <time>2009-10-24T07:37:47Z</time>
      </trkpt>
      <trkpt lat="43.79534" lon="7.04121">
        <ele>1033.1</ele>
        <time>2009-10-24T07:38:02Z</time>
      </trkpt>
      <trkpt lat="43.79555" lon="7.04174">
        <ele>1021.1</ele>
        <time>2009-10-24T07:39:03Z</time>
      </trkpt>
      <trkpt lat="43.79572" lon="7.04205">
        <ele>1021.5</ele>
        <time>2009-10-24T07:39:16Z</time>
      </trkpt>
      <trkpt lat="43.79591" lon="7.04197">
        <ele>1019.6</ele>
        <time>2009-10-24T07:39:43Z</time>
      </trkpt>
      <trkpt lat="43.79596" lon="7.04166">
        <ele>1015.3</ele>
        <time>2009-10-24T07:40:12Z</time>
      </trkpt>
      <trkpt lat="43.79605" lon="7.04131">
        <ele>1020.6</ele>
        <time>2009-10-24T07:40:49Z</time>
      </trkpt>
      <trkpt lat="43.79631" lon="7.04131">
        <ele>1026.3</ele>
        <time>2009-10-24T07:41:15Z</time>
      </trkpt>
      <trkpt lat="43.79634" lon="7.04094">
        <ele>1025.4</ele>
        <time>2009-10-24T07:41:34Z</time>
      </trkpt>
      <trkpt lat="43.79642" lon="7.04056">
        <ele>1026.8</ele>
        <time>2009-10-24T07:41:52Z</time>
      </trkpt>
      <trkpt lat="43.79644" lon="7.04019">
        <ele>1026.3</ele>
        <time>2009-10-24T07:42:00Z</time>
      </trkpt>
      <trkpt lat="43.79643" lon="7.03982">
        <ele>1024.4</ele>
        <time>2009-10-24T07:42:10Z</time>
      </trkpt>
      <trkpt lat="43.79648" lon="7.03946">
        <ele>1024.4</ele>
        <time>2009-10-24T07:42:19Z</time>
      </trkpt>
      <trkpt lat="43.79656" lon="7.03911">
        <ele>1021.1</ele>
        <time>2009-10-24T07:42:27Z</time>
      </trkpt>
      <trkpt lat="43.79654" lon="7.03872">
        <ele>1020.6</ele>
        <time>2009-10-24T07:42:36Z</time>
      </trkpt>
      <trkpt lat="43.79663" lon="7.03838">
        <ele>1023.5</ele>
        <time>2009-10-24T07:42:49Z</time>
      </trkpt>
      <trkpt lat="43.79677" lon="7.038">
        <ele>1027.8</ele>
        <time>2009-10-24T07:43:14Z</time>
      </trkpt>
      <trkpt lat="43.79691" lon="7.03767">
        <ele>1028.7</ele>
        <time>2009-10-24T07:43:35Z</time>
      </trkpt>
      <trkpt lat="43.79718" lon="7.03754">
        <ele>1036.9</ele>
        <time>2009-10-24T07:44:15Z</time>
      </trkpt>
      <trkpt lat="43.79738" lon="7.03723">
        <ele>1045.6</ele>
        <time>2009-10-24T07:45:03Z</time>
      </trkpt>
      <trkpt lat="43.79751" lon="7.03688">
        <ele>1052.3</ele>
        <time>2009-10-24T07:45:43Z</time>
      </trkpt>
      <trkpt lat="43.79783" lon="7.03683">
        <ele>1057.6</ele>
        <time>2009-10-24T07:46:19Z</time>
      </trkpt>
      <trkpt lat="43.79801" lon="7.03665">
        <ele>1064.3</ele>
        <time>2009-10-24T07:46:46Z</time>
      </trkpt>
      <trkpt lat="43.79824" lon="7.03643">
        <ele>1065.3</ele>
        <time>2009-10-24T07:47:16Z</time>
      </trkpt>
      <trkpt lat="43.79849" lon="7.03621">
        <ele>1071.5</ele>
        <time>2009-10-24T07:48:02Z</time>
      </trkpt>
      <trkpt lat="43.79872" lon="7.03593">
        <ele>1074.4</ele>
        <time>2009-10-24T07:49:58Z</time>
      </trkpt>
      <trkpt lat="43.79892" lon="7.03565">
        <ele>1084</ele>
        <time>2009-10-24T07:50:33Z</time>
      </trkpt>
      <trkpt lat="43.79914" lon="7.03543">
        <ele>1090.8</ele>
        <time>2009-10-24T07:51:06Z</time>
      </trkpt>
      <trkpt lat="43.79927" lon="7.03511">
        <ele>1096.5</ele>
        <time>2009-10-24T07:51:44Z</time>
      </trkpt>
      <trkpt lat="43.79938" lon="7.0348">
        <ele>1102.8</ele>
        <time>2009-10-24T07:52:19Z</time>
      </trkpt>
      <trkpt lat="43.79962" lon="7.03454">
        <ele>1108.1</ele>
        <time>2009-10-24T07:52:56Z</time>
      </trkpt>
      <trkpt lat="43.7998" lon="7.03427">
        <ele>1113.3</ele>
        <time>2009-10-24T07:53:48Z</time>
      </trkpt>
      <trkpt lat="43.79995" lon="7.03397">
        <ele>1116.7</ele>
        <time>2009-10-24T07:54:20Z</time>
      </trkpt>
      <trkpt lat="43.80023" lon="7.03382">
        <ele>1121</ele>
        <time>2009-10-24T07:55:12Z</time>
      </trkpt>
      <trkpt lat="43.80038" lon="7.03357">
        <ele>1124.4</ele>
        <time>2009-10-24T07:55:37Z</time>
      </trkpt>
      <trkpt lat="43.80053" lon="7.03322">
        <ele>1126.8</ele>
        <time>2009-10-24T07:55:57Z</time>
      </trkpt>
      <trkpt lat="43.80069" lon="7.03293">
        <ele>1127.3</ele>
        <time>2009-10-24T07:56:15Z</time>
      </trkpt>
      <trkpt lat="43.80087" lon="7.03264">
        <ele>1127.3</ele>
        <time>2009-10-24T07:56:29Z</time>
      </trkpt>
      <trkpt lat="43.80102" lon="7.03233">
        <ele>1129.2</ele>
        <time>2009-10-24T07:56:42Z</time>
      </trkpt>
      <trkpt lat="43.80122" lon="7.03204">
        <ele>1129.2</ele>
        <time>2009-10-24T07:56:54Z</time>
      </trkpt>
      <trkpt lat="43.80135" lon="7.03169">
        <ele>1130.2</ele>
        <time>2009-10-24T07:57:06Z</time>
      </trkpt>
      <trkpt lat="43.80155" lon="7.03145">
        <ele>1132.6</ele>
        <time>2009-10-24T07:57:19Z</time>
      </trkpt>
      <trkpt lat="43.80176" lon="7.03117">
        <ele>1141.2</ele>
        <time>2009-10-24T07:57:36Z</time>
      </trkpt>
      <trkpt lat="43.80192" lon="7.03081">
        <ele>1144.6</ele>
        <time>2009-10-24T07:57:52Z</time>
      </trkpt>
      <trkpt lat="43.80207" lon="7.03042">
        <ele>1148.9</ele>
        <time>2009-10-24T07:58:08Z</time>
      </trkpt>
      <trkpt lat="43.80218" lon="7.03001">
        <ele>1148.9</ele>
        <time>2009-10-24T07:58:26Z</time>
      </trkpt>
      <trkpt lat="43.80218" lon="7.02963">
        <ele>1149.4</ele>
        <time>2009-10-24T07:58:40Z</time>
      </trkpt>
      <trkpt lat="43.8024" lon="7.02947">
        <ele>1153.2</ele>
        <time>2009-10-24T07:59:01Z</time>
      </trkpt>
      <trkpt lat="43.80243" lon="7.0291">
        <ele>1155.2</ele>
        <time>2009-10-24T07:59:19Z</time>
      </trkpt>
      <trkpt lat="43.80241" lon="7.02869">
        <ele>1156.6</ele>
        <time>2009-10-24T07:59:36Z</time>
      </trkpt>
      <trkpt lat="43.80236" lon="7.02832">
        <ele>1156.1</ele>
        <time>2009-10-24T07:59:48Z</time>
      </trkpt>
      <trkpt lat="43.80255" lon="7.02804">
        <ele>1160.9</ele>
        <time>2009-10-24T08:00:50Z</time>
      </trkpt>
      <trkpt lat="43.80281" lon="7.02787">
        <ele>1165.7</ele>
        <time>2009-10-24T08:01:49Z</time>
      </trkpt>
      <trkpt lat="43.80305" lon="7.02792">
        <ele>1171</ele>
        <time>2009-10-24T08:02:45Z</time>
      </trkpt>
      <trkpt lat="43.80323" lon="7.02822">
        <ele>1174.9</ele>
        <time>2009-10-24T08:03:21Z</time>
      </trkpt>
      <trkpt lat="43.80336" lon="7.02853">
        <ele>1180.2</ele>
        <time>2009-10-24T08:03:58Z</time>
      </trkpt>
      <trkpt lat="43.80355" lon="7.02862">
        <ele>1195.1</ele>
        <time>2009-10-24T08:05:07Z</time>
      </trkpt>
      <trkpt lat="43.8036" lon="7.02901">
        <ele>1190.2</ele>
        <time>2009-10-24T08:05:53Z</time>
      </trkpt>
      <trkpt lat="43.80365" lon="7.02913">
        <ele>1199.9</ele>
        <time>2009-10-24T08:06:37Z</time>
      </trkpt>
      <trkpt lat="43.80359" lon="7.02945">
        <ele>1203.2</ele>
        <time>2009-10-24T08:07:27Z</time>
      </trkpt>
      <trkpt lat="43.80374" lon="7.02919">
        <ele>1216.7</ele>
        <time>2009-10-24T08:07:55Z</time>
      </trkpt>
      <trkpt lat="43.80386" lon="7.02886">
        <ele>1226.8</ele>
        <time>2009-10-24T08:08:29Z</time>
      </trkpt>
      <trkpt lat="43.80398" lon="7.02896">
        <ele>1223.4</ele>
        <time>2009-10-24T08:09:10Z</time>
      </trkpt>
      <trkpt lat="43.80405" lon="7.02908">
        <ele>1230.6</ele>
        <time>2009-10-24T08:10:00Z</time>
      </trkpt>
      <trkpt lat="43.80417" lon="7.02893">
        <ele>1238.3</ele>
        <time>2009-10-24T08:10:42Z</time>
      </trkpt>
      <trkpt lat="43.8042" lon="7.02938">
        <ele>1236.4</ele>
        <time>2009-10-24T08:11:28Z</time>
      </trkpt>
      <trkpt lat="43.80425" lon="7.02948">
        <ele>1247.4</ele>
        <time>2009-10-24T08:12:20Z</time>
      </trkpt>
      <trkpt lat="43.80423" lon="7.02991">
        <ele>1246</ele>
        <time>2009-10-24T08:13:05Z</time>
      </trkpt>
      <trkpt lat="43.80408" lon="7.03026">
        <ele>1252.7</ele>
        <time>2009-10-24T08:13:43Z</time>
      </trkpt>
      <trkpt lat="43.80434" lon="7.03009">
        <ele>1269.1</ele>
        <time>2009-10-24T08:14:28Z</time>
      </trkpt>
      <trkpt lat="43.80452" lon="7.02983">
        <ele>1278.2</ele>
        <time>2009-10-24T08:15:02Z</time>
      </trkpt>
      <trkpt lat="43.80453" lon="7.03004">
        <ele>1277.7</ele>
        <time>2009-10-24T08:15:36Z</time>
      </trkpt>
      <trkpt lat="43.80444" lon="7.0304">
        <ele>1276.3</ele>
        <time>2009-10-24T08:16:07Z</time>
      </trkpt>
      <trkpt lat="43.80428" lon="7.03074">
        <ele>1280.6</ele>
        <time>2009-10-24T08:16:35Z</time>
      </trkpt>
      <trkpt lat="43.80417" lon="7.03104">
        <ele>1285.4</ele>
        <time>2009-10-24T08:17:09Z</time>
      </trkpt>
      <trkpt lat="43.80407" lon="7.03125">
        <ele>1290.7</ele>
        <time>2009-10-24T08:18:19Z</time>
      </trkpt>
      <trkpt lat="43.80435" lon="7.03112">
        <ele>1297.4</ele>
        <time>2009-10-24T08:18:52Z</time>
      </trkpt>
      <trkpt lat="43.80421" lon="7.03142">
        <ele>1304.2</ele>
        <time>2009-10-24T08:19:21Z</time>
      </trkpt>
      <trkpt lat="43.8041" lon="7.03174">
        <ele>1306.6</ele>
        <time>2009-10-24T08:19:49Z</time>
      </trkpt>
      <trkpt lat="43.80432" lon="7.03153">
        <ele>1309.9</ele>
        <time>2009-10-24T08:20:14Z</time>
      </trkpt>
      <trkpt lat="43.80427" lon="7.0318">
        <ele>1316.7</ele>
        <time>2009-10-24T08:20:47Z</time>
      </trkpt>
      <trkpt lat="43.80434" lon="7.03185">
        <ele>1321</ele>
        <time>2009-10-24T08:21:20Z</time>
      </trkpt>
      <trkpt lat="43.80457" lon="7.03163">
        <ele>1324.8</ele>
        <time>2009-10-24T08:21:53Z</time>
      </trkpt>
      <trkpt lat="43.80477" lon="7.03138">
        <ele>1335.4</ele>
        <time>2009-10-24T08:22:33Z</time>
      </trkpt>
      <trkpt lat="43.80485" lon="7.03147">
        <ele>1344.5</ele>
        <time>2009-10-24T08:23:10Z</time>
      </trkpt>
      <trkpt lat="43.80483" lon="7.03187">
        <ele>1344.5</ele>
        <time>2009-10-24T08:23:49Z</time>
      </trkpt>
      <trkpt lat="43.80483" lon="7.03207">
        <ele>1352.2</ele>
        <time>2009-10-24T08:24:30Z</time>
      </trkpt>
      <trkpt lat="43.80504" lon="7.03179">
        <ele>1364.7</ele>
        <time>2009-10-24T08:25:06Z</time>
      </trkpt>
      <trkpt lat="43.80516" lon="7.03148">
        <ele>1374.3</ele>
        <time>2009-10-24T08:25:38Z</time>
      </trkpt>
      <trkpt lat="43.80527" lon="7.03151">
        <ele>1377.7</ele>
        <time>2009-10-24T08:26:13Z</time>
      </trkpt>
      <trkpt lat="43.80527" lon="7.03188">
        <ele>1377.2</ele>
        <time>2009-10-24T08:26:38Z</time>
      </trkpt>
      <trkpt lat="43.80518" lon="7.03224">
        <ele>1375.3</ele>
        <time>2009-10-24T08:26:57Z</time>
      </trkpt>
      <trkpt lat="43.80499" lon="7.03255">
        <ele>1377.7</ele>
        <time>2009-10-24T08:27:18Z</time>
      </trkpt>
      <trkpt lat="43.80482" lon="7.03283">
        <ele>1380.6</ele>
        <time>2009-10-24T08:27:42Z</time>
      </trkpt>
      <trkpt lat="43.80505" lon="7.0327">
        <ele>1386.8</ele>
        <time>2009-10-24T08:28:04Z</time>
      </trkpt>
      <trkpt lat="43.80526" lon="7.03254">
        <ele>1396</ele>
        <time>2009-10-24T08:28:29Z</time>
      </trkpt>
      <trkpt lat="43.80544" lon="7.0323">
        <ele>1401.7</ele>
        <time>2009-10-24T08:28:53Z</time>
      </trkpt>
      <trkpt lat="43.80561" lon="7.03201">
        <ele>1409.9</ele>
        <time>2009-10-24T08:29:19Z</time>
      </trkpt>
      <trkpt lat="43.80578" lon="7.03172">
        <ele>1416.2</ele>
        <time>2009-10-24T08:29:51Z</time>
      </trkpt>
      <trkpt lat="43.80596" lon="7.0314">
        <ele>1421.9</ele>
        <time>2009-10-24T08:30:21Z</time>
      </trkpt>
      <trkpt lat="43.80614" lon="7.03113">
        <ele>1418.6</ele>
        <time>2009-10-24T08:32:29Z</time>
      </trkpt>
      <trkpt lat="43.80629" lon="7.0308">
        <ele>1417.1</ele>
        <time>2009-10-24T08:32:59Z</time>
      </trkpt>
      <trkpt lat="43.80643" lon="7.03047">
        <ele>1418.6</ele>
        <time>2009-10-24T08:33:29Z</time>
      </trkpt>
      <trkpt lat="43.80666" lon="7.03022">
        <ele>1419.5</ele>
        <time>2009-10-24T08:34:00Z</time>
      </trkpt>
      <trkpt lat="43.80684" lon="7.02995">
        <ele>1422.4</ele>
        <time>2009-10-24T08:34:29Z</time>
      </trkpt>
      <trkpt lat="43.80709" lon="7.02991">
        <ele>1426.3</ele>
        <time>2009-10-24T08:34:57Z</time>
      </trkpt>
      <trkpt lat="43.80734" lon="7.02983">
        <ele>1432</ele>
        <time>2009-10-24T08:35:28Z</time>
      </trkpt>
      <trkpt lat="43.80757" lon="7.02966">
        <ele>1435.9</ele>
        <time>2009-10-24T08:36:03Z</time>
      </trkpt>
      <trkpt lat="43.80782" lon="7.02937">
        <ele>1442.6</ele>
        <time>2009-10-24T08:38:16Z</time>
      </trkpt>
      <trkpt lat="43.80797" lon="7.02903">
        <ele>1444</ele>
        <time>2009-10-24T08:38:31Z</time>
      </trkpt>
      <trkpt lat="43.80819" lon="7.02874">
        <ele>1446.4</ele>
        <time>2009-10-24T08:41:49Z</time>
      </trkpt>
      <trkpt lat="43.80836" lon="7.02839">
        <ele>1444.5</ele>
        <time>2009-10-24T08:42:12Z</time>
      </trkpt>
      <trkpt lat="43.80851" lon="7.02806">
        <ele>1441.6</ele>
        <time>2009-10-24T08:42:24Z</time>
      </trkpt>
      <trkpt lat="43.80867" lon="7.02771">
        <ele>1438.8</ele>
        <time>2009-10-24T08:42:33Z</time>
      </trkpt>
      <trkpt lat="43.80883" lon="7.02737">
        <ele>1437.3</ele>
        <time>2009-10-24T08:42:42Z</time>
      </trkpt>
      <trkpt lat="43.80896" lon="7.02705">
        <ele>1436.3</ele>
        <time>2009-10-24T08:42:53Z</time>
      </trkpt>
      <trkpt lat="43.80911" lon="7.0267">
        <ele>1434.4</ele>
        <time>2009-10-24T08:43:02Z</time>
      </trkpt>
      <trkpt lat="43.80924" lon="7.02636">
        <ele>1435.4</ele>
        <time>2009-10-24T08:43:10Z</time>
      </trkpt>
      <trkpt lat="43.80939" lon="7.026">
        <ele>1434.4</ele>
        <time>2009-10-24T08:43:17Z</time>
      </trkpt>
      <trkpt lat="43.80953" lon="7.02565">
        <ele>1433.9</ele>
        <time>2009-10-24T08:43:25Z</time>
      </trkpt>
      <trkpt lat="43.80966" lon="7.0253">
        <ele>1433.5</ele>
        <time>2009-10-24T08:43:35Z</time>
      </trkpt>
      <trkpt lat="43.80981" lon="7.02497">
        <ele>1433.5</ele>
        <time>2009-10-24T08:43:45Z</time>
      </trkpt>
      <trkpt lat="43.80997" lon="7.02464">
        <ele>1432.5</ele>
        <time>2009-10-24T08:43:53Z</time>
      </trkpt>
      <trkpt lat="43.81022" lon="7.02445">
        <ele>1431.1</ele>
        <time>2009-10-24T08:44:02Z</time>
      </trkpt>
      <trkpt lat="43.8104" lon="7.02416">
        <ele>1431.1</ele>
        <time>2009-10-24T08:44:10Z</time>
      </trkpt>
      <trkpt lat="43.81043" lon="7.02376">
        <ele>1430.6</ele>
        <time>2009-10-24T08:44:27Z</time>
      </trkpt>
      <trkpt lat="43.81049" lon="7.02337">
        <ele>1428.7</ele>
        <time>2009-10-24T08:44:35Z</time>
      </trkpt>
      <trkpt lat="43.81054" lon="7.02296">
        <ele>1426.7</ele>
        <time>2009-10-24T08:44:44Z</time>
      </trkpt>
      <trkpt lat="43.81059" lon="7.02259">
        <ele>1424.3</ele>
        <time>2009-10-24T08:44:52Z</time>
      </trkpt>
      <trkpt lat="43.8107" lon="7.02225">
        <ele>1422.9</ele>
        <time>2009-10-24T08:45:00Z</time>
      </trkpt>
      <trkpt lat="43.8108" lon="7.02189">
        <ele>1422.9</ele>
        <time>2009-10-24T08:45:10Z</time>
      </trkpt>
      <trkpt lat="43.81089" lon="7.02152">
        <ele>1421</ele>
        <time>2009-10-24T08:45:20Z</time>
      </trkpt>
      <trkpt lat="43.81097" lon="7.02113">
        <ele>1420.5</ele>
        <time>2009-10-24T08:45:30Z</time>
      </trkpt>
      <trkpt lat="43.81105" lon="7.02071">
        <ele>1420</ele>
        <time>2009-10-24T08:45:38Z</time>
      </trkpt>
      <trkpt lat="43.8111" lon="7.02034">
        <ele>1421</ele>
        <time>2009-10-24T08:45:45Z</time>
      </trkpt>
      <trkpt lat="43.81122" lon="7.02">
        <ele>1419.5</ele>
        <time>2009-10-24T08:45:53Z</time>
      </trkpt>
      <trkpt lat="43.81142" lon="7.01974">
        <ele>1421.9</ele>
        <time>2009-10-24T08:46:21Z</time>
      </trkpt>
      <trkpt lat="43.81155" lon="7.0194">
        <ele>1425.3</ele>
        <time>2009-10-24T08:46:55Z</time>
      </trkpt>
      <trkpt lat="43.81166" lon="7.01905">
        <ele>1426.3</ele>
        <time>2009-10-24T08:47:08Z</time>
      </trkpt>
      <trkpt lat="43.81176" lon="7.01871">
        <ele>1425.8</ele>
        <time>2009-10-24T08:47:17Z</time>
      </trkpt>
      <trkpt lat="43.812" lon="7.0185">
        <ele>1425.3</ele>
        <time>2009-10-24T08:47:32Z</time>
      </trkpt>
      <trkpt lat="43.81213" lon="7.0182">
        <ele>1433</ele>
        <time>2009-10-24T08:48:01Z</time>
      </trkpt>
      <trkpt lat="43.81224" lon="7.01784">
        <ele>1435.9</ele>
        <time>2009-10-24T08:48:33Z</time>
      </trkpt>
      <trkpt lat="43.81235" lon="7.01748">
        <ele>1433.9</ele>
        <time>2009-10-24T08:48:45Z</time>
      </trkpt>
      <trkpt lat="43.81236" lon="7.01711">
        <ele>1433</ele>
        <time>2009-10-24T08:48:56Z</time>
      </trkpt>
      <trkpt lat="43.81238" lon="7.01672">
        <ele>1427.2</ele>
        <time>2009-10-24T08:49:07Z</time>
      </trkpt>
      <trkpt lat="43.81257" lon="7.01648">
        <ele>1429.6</ele>
        <time>2009-10-24T08:49:17Z</time>
      </trkpt>
      <trkpt lat="43.81279" lon="7.01624">
        <ele>1434.9</ele>
        <time>2009-10-24T08:49:40Z</time>
      </trkpt>
      <trkpt lat="43.81306" lon="7.01607">
        <ele>1434.4</ele>
        <time>2009-10-24T08:49:53Z</time>
      </trkpt>
      <trkpt lat="43.81334" lon="7.01595">
        <ele>1431.1</ele>
        <time>2009-10-24T08:50:04Z</time>
      </trkpt>
      <trkpt lat="43.81362" lon="7.01586">
        <ele>1430.1</ele>
        <time>2009-10-24T08:50:15Z</time>
      </trkpt>
      <trkpt lat="43.8139" lon="7.01579">
        <ele>1432</ele>
        <time>2009-10-24T08:50:26Z</time>
      </trkpt>
      <trkpt lat="43.81419" lon="7.01572">
        <ele>1432</ele>
        <time>2009-10-24T08:50:37Z</time>
      </trkpt>
      <trkpt lat="43.81447" lon="7.01561">
        <ele>1433.9</ele>
        <time>2009-10-24T08:50:49Z</time>
      </trkpt>
      <trkpt lat="43.81471" lon="7.01547">
        <ele>1438.3</ele>
        <time>2009-10-24T08:51:17Z</time>
      </trkpt>
      <trkpt lat="43.81499" lon="7.01536">
        <ele>1440.2</ele>
        <time>2009-10-24T08:51:32Z</time>
      </trkpt>
      <trkpt lat="43.81528" lon="7.01538">
        <ele>1441.2</ele>
        <time>2009-10-24T08:51:55Z</time>
      </trkpt>
      <trkpt lat="43.81554" lon="7.01538">
        <ele>1443.6</ele>
        <time>2009-10-24T08:52:08Z</time>
      </trkpt>
      <trkpt lat="43.81581" lon="7.01541">
        <ele>1445.5</ele>
        <time>2009-10-24T08:52:39Z</time>
      </trkpt>
      <trkpt lat="43.81606" lon="7.01533">
        <ele>1449.8</ele>
        <time>2009-10-24T08:53:10Z</time>
      </trkpt>
      <trkpt lat="43.81632" lon="7.01512">
        <ele>1447.9</ele>
        <time>2009-10-24T08:53:22Z</time>
      </trkpt>
      <trkpt lat="43.81655" lon="7.01495">
        <ele>1446.9</ele>
        <time>2009-10-24T08:53:33Z</time>
      </trkpt>
      <trkpt lat="43.81677" lon="7.01471">
        <ele>1445</ele>
        <time>2009-10-24T08:53:43Z</time>
      </trkpt>
      <trkpt lat="43.817" lon="7.01451">
        <ele>1443.1</ele>
        <time>2009-10-24T08:53:51Z</time>
      </trkpt>
      <trkpt lat="43.8172" lon="7.01428">
        <ele>1444</ele>
        <time>2009-10-24T08:54:00Z</time>
      </trkpt>
      <trkpt lat="43.81748" lon="7.01416">
        <ele>1441.6</ele>
        <time>2009-10-24T08:54:09Z</time>
      </trkpt>
      <trkpt lat="43.81772" lon="7.014">
        <ele>1440.2</ele>
        <time>2009-10-24T08:54:17Z</time>
      </trkpt>
      <trkpt lat="43.81797" lon="7.0138">
        <ele>1438.3</ele>
        <time>2009-10-24T08:54:24Z</time>
      </trkpt>
      <trkpt lat="43.81823" lon="7.01356">
        <ele>1435.4</ele>
        <time>2009-10-24T08:54:32Z</time>
      </trkpt>
      <trkpt lat="43.81843" lon="7.01335">
        <ele>1437.3</ele>
        <time>2009-10-24T08:54:40Z</time>
      </trkpt>
      <trkpt lat="43.81851" lon="7.01293">
        <ele>1436.3</ele>
        <time>2009-10-24T08:54:49Z</time>
      </trkpt>
      <trkpt lat="43.81869" lon="7.01269">
        <ele>1433.5</ele>
        <time>2009-10-24T08:55:04Z</time>
      </trkpt>
      <trkpt lat="43.81887" lon="7.01239">
        <ele>1436.8</ele>
        <time>2009-10-24T08:55:18Z</time>
      </trkpt>
      <trkpt lat="43.81909" lon="7.01221">
        <ele>1437.8</ele>
        <time>2009-10-24T08:55:32Z</time>
      </trkpt>
      <trkpt lat="43.81918" lon="7.01187">
        <ele>1432.5</ele>
        <time>2009-10-24T08:55:46Z</time>
      </trkpt>
      <trkpt lat="43.81937" lon="7.01162">
        <ele>1432</ele>
        <time>2009-10-24T08:55:55Z</time>
      </trkpt>
      <trkpt lat="43.81961" lon="7.01137">
        <ele>1430.6</ele>
        <time>2009-10-24T08:56:02Z</time>
      </trkpt>
      <trkpt lat="43.81979" lon="7.01104">
        <ele>1431.1</ele>
        <time>2009-10-24T08:56:08Z</time>
      </trkpt>
      <trkpt lat="43.81998" lon="7.01073">
        <ele>1429.1</ele>
        <time>2009-10-24T08:56:15Z</time>
      </trkpt>
      <trkpt lat="43.82018" lon="7.0105">
        <ele>1431.1</ele>
        <time>2009-10-24T08:56:27Z</time>
      </trkpt>
      <trkpt lat="43.82041" lon="7.01061">
        <ele>1432.5</ele>
        <time>2009-10-24T08:56:50Z</time>
      </trkpt>
      <trkpt lat="43.82046" lon="7.01069">
        <ele>1432</ele>
        <time>2009-10-24T08:58:40Z</time>
      </trkpt>
      <trkpt lat="43.82028" lon="7.01034">
        <ele>1428.7</ele>
        <time>2009-10-24T08:58:47Z</time>
      </trkpt>
      <trkpt lat="43.82012" lon="7.01005">
        <ele>1428.7</ele>
        <time>2009-10-24T08:58:58Z</time>
      </trkpt>
      <trkpt lat="43.81997" lon="7.00973">
        <ele>1430.1</ele>
        <time>2009-10-24T08:59:13Z</time>
      </trkpt>
      <trkpt lat="43.82008" lon="7.0097">
        <ele>1435.9</ele>
        <time>2009-10-24T08:59:28Z</time>
      </trkpt>
      <trkpt lat="43.82013" lon="7.00964">
        <ele>1436.3</ele>
        <time>2009-10-24T08:59:46Z</time>
      </trkpt>
      <trkpt lat="43.82002" lon="7.00932">
        <ele>1438.8</ele>
        <time>2009-10-24T09:00:02Z</time>
      </trkpt>
      <trkpt lat="43.81998" lon="7.00898">
        <ele>1446.9</ele>
        <time>2009-10-24T09:00:19Z</time>
      </trkpt>
      <trkpt lat="43.82006" lon="7.00864">
        <ele>1452.7</ele>
        <time>2009-10-24T09:00:39Z</time>
      </trkpt>
      <trkpt lat="43.82007" lon="7.00826">
        <ele>1454.6</ele>
        <time>2009-10-24T09:00:57Z</time>
      </trkpt>
      <trkpt lat="43.82006" lon="7.00789">
        <ele>1454.6</ele>
        <time>2009-10-24T09:01:15Z</time>
      </trkpt>
      <trkpt lat="43.81998" lon="7.00752">
        <ele>1455.1</ele>
        <time>2009-10-24T09:01:28Z</time>
      </trkpt>
      <trkpt lat="43.8199" lon="7.00717">
        <ele>1457</ele>
        <time>2009-10-24T09:01:40Z</time>
      </trkpt>
      <trkpt lat="43.81983" lon="7.00681">
        <ele>1457.5</ele>
        <time>2009-10-24T09:01:56Z</time>
      </trkpt>
      <trkpt lat="43.81987" lon="7.00645">
        <ele>1465.7</ele>
        <time>2009-10-24T09:02:13Z</time>
      </trkpt>
      <trkpt lat="43.82007" lon="7.00623">
        <ele>1468.1</ele>
        <time>2009-10-24T09:02:46Z</time>
      </trkpt>
      <trkpt lat="43.82032" lon="7.00636">
        <ele>1470</ele>
        <time>2009-10-24T09:03:03Z</time>
      </trkpt>
      <trkpt lat="43.82056" lon="7.00649">
        <ele>1475.8</ele>
        <time>2009-10-24T09:03:21Z</time>
      </trkpt>
      <trkpt lat="43.82077" lon="7.00675">
        <ele>1479.6</ele>
        <time>2009-10-24T09:03:39Z</time>
      </trkpt>
      <trkpt lat="43.82101" lon="7.0069">
        <ele>1485.4</ele>
        <time>2009-10-24T09:03:58Z</time>
      </trkpt>
      <trkpt lat="43.82126" lon="7.00691">
        <ele>1490.2</ele>
        <time>2009-10-24T09:04:19Z</time>
      </trkpt>
      <trkpt lat="43.82142" lon="7.00664">
        <ele>1497.4</ele>
        <time>2009-10-24T09:04:42Z</time>
      </trkpt>
      <trkpt lat="43.82147" lon="7.00626">
        <ele>1501.2</ele>
        <time>2009-10-24T09:05:07Z</time>
      </trkpt>
      <trkpt lat="43.8214" lon="7.00592">
        <ele>1500.8</ele>
        <time>2009-10-24T09:05:31Z</time>
      </trkpt>
      <trkpt lat="43.82136" lon="7.00553">
        <ele>1506.5</ele>
        <time>2009-10-24T09:05:54Z</time>
      </trkpt>
      <trkpt lat="43.82135" lon="7.00512">
        <ele>1515.7</ele>
        <time>2009-10-24T09:06:38Z</time>
      </trkpt>
      <trkpt lat="43.82125" lon="7.00481">
        <ele>1521.9</ele>
        <time>2009-10-24T09:07:07Z</time>
      </trkpt>
      <trkpt lat="43.82115" lon="7.00447">
        <ele>1526.2</ele>
        <time>2009-10-24T09:07:39Z</time>
      </trkpt>
      <trkpt lat="43.82102" lon="7.00412">
        <ele>1528.2</ele>
        <time>2009-10-24T09:08:10Z</time>
      </trkpt>
      <trkpt lat="43.82103" lon="7.00375">
        <ele>1536.3</ele>
        <time>2009-10-24T09:08:36Z</time>
      </trkpt>
      <trkpt lat="43.82102" lon="7.00341">
        <ele>1543.1</ele>
        <time>2009-10-24T09:09:01Z</time>
      </trkpt>
      <trkpt lat="43.82105" lon="7.00304">
        <ele>1539.2</ele>
        <time>2009-10-24T09:09:27Z</time>
      </trkpt>
      <trkpt lat="43.82096" lon="7.0027">
        <ele>1546.9</ele>
        <time>2009-10-24T09:09:55Z</time>
      </trkpt>
      <trkpt lat="43.82085" lon="7.00241">
        <ele>1561.3</ele>
        <time>2009-10-24T09:10:20Z</time>
      </trkpt>
      <trkpt lat="43.8208" lon="7.00206">
        <ele>1567.1</ele>
        <time>2009-10-24T09:10:43Z</time>
      </trkpt>
      <trkpt lat="43.82081" lon="7.00164">
        <ele>1567.1</ele>
        <time>2009-10-24T09:12:05Z</time>
      </trkpt>
      <trkpt lat="43.82098" lon="7.0013">
        <ele>1567.1</ele>
        <time>2009-10-24T09:12:23Z</time>
      </trkpt>
      <trkpt lat="43.82121" lon="7.00105">
        <ele>1565.6</ele>
        <time>2009-10-24T09:12:36Z</time>
      </trkpt>
      <trkpt lat="43.8213" lon="7.00067">
        <ele>1570.5</ele>
        <time>2009-10-24T09:12:53Z</time>
      </trkpt>
      <trkpt lat="43.82137" lon="7.0003">
        <ele>1574.3</ele>
        <time>2009-10-24T09:13:09Z</time>
      </trkpt>
      <trkpt lat="43.82138" lon="6.99998">
        <ele>1579.1</ele>
        <time>2009-10-24T09:13:24Z</time>
      </trkpt>
      <trkpt lat="43.82142" lon="6.99958">
        <ele>1581</ele>
        <time>2009-10-24T09:13:41Z</time>
      </trkpt>
      <trkpt lat="43.82153" lon="6.99925">
        <ele>1582.5</ele>
        <time>2009-10-24T09:13:59Z</time>
      </trkpt>
      <trkpt lat="43.82135" lon="6.99923">
        <ele>1584.9</ele>
        <time>2009-10-24T09:15:58Z</time>
      </trkpt>
      <trkpt lat="43.82108" lon="6.99909">
        <ele>1587.3</ele>
        <time>2009-10-24T09:16:16Z</time>
      </trkpt>
      <trkpt lat="43.82087" lon="6.99886">
        <ele>1588.2</ele>
        <time>2009-10-24T09:16:31Z</time>
      </trkpt>
      <trkpt lat="43.8207" lon="6.99857">
        <ele>1590.2</ele>
        <time>2009-10-24T09:16:43Z</time>
      </trkpt>
      <trkpt lat="43.82049" lon="6.99832">
        <ele>1588.7</ele>
        <time>2009-10-24T09:16:50Z</time>
      </trkpt>
      <trkpt lat="43.82023" lon="6.99809">
        <ele>1589.2</ele>
        <time>2009-10-24T09:16:58Z</time>
      </trkpt>
      <trkpt lat="43.81995" lon="6.99792">
        <ele>1587.8</ele>
        <time>2009-10-24T09:17:07Z</time>
      </trkpt>
      <trkpt lat="43.81971" lon="6.99765">
        <ele>1585.8</ele>
        <time>2009-10-24T09:17:13Z</time>
      </trkpt>
      <trkpt lat="43.81944" lon="6.99749">
        <ele>1582.9</ele>
        <time>2009-10-24T09:17:22Z</time>
      </trkpt>
      <trkpt lat="43.81921" lon="6.99733">
        <ele>1581.5</ele>
        <time>2009-10-24T09:17:27Z</time>
      </trkpt>
      <trkpt lat="43.81921" lon="6.99694">
        <ele>1580.5</ele>
        <time>2009-10-24T09:17:34Z</time>
      </trkpt>
      <trkpt lat="43.81915" lon="6.99658">
        <ele>1581</ele>
        <time>2009-10-24T09:17:44Z</time>
      </trkpt>
      <trkpt lat="43.81904" lon="6.99628">
        <ele>1582.5</ele>
        <time>2009-10-24T09:17:56Z</time>
      </trkpt>
      <trkpt lat="43.81888" lon="6.99598">
        <ele>1584.4</ele>
        <time>2009-10-24T09:18:06Z</time>
      </trkpt>
      <trkpt lat="43.81885" lon="6.99562">
        <ele>1584.4</ele>
        <time>2009-10-24T09:18:16Z</time>
      </trkpt>
      <trkpt lat="43.81891" lon="6.99523">
        <ele>1584.4</ele>
        <time>2009-10-24T09:18:26Z</time>
      </trkpt>
      <trkpt lat="43.81898" lon="6.99486">
        <ele>1585.4</ele>
        <time>2009-10-24T09:18:37Z</time>
      </trkpt>
      <trkpt lat="43.81906" lon="6.99449">
        <ele>1586.8</ele>
        <time>2009-10-24T09:18:51Z</time>
      </trkpt>
      <trkpt lat="43.81911" lon="6.99413">
        <ele>1591.1</ele>
        <time>2009-10-24T09:19:08Z</time>
      </trkpt>
      <trkpt lat="43.81908" lon="6.99373">
        <ele>1594</ele>
        <time>2009-10-24T09:19:25Z</time>
      </trkpt>
      <trkpt lat="43.81903" lon="6.99336">
        <ele>1596.4</ele>
        <time>2009-10-24T09:19:44Z</time>
      </trkpt>
      <trkpt lat="43.81897" lon="6.99296">
        <ele>1598.3</ele>
        <time>2009-10-24T09:20:04Z</time>
      </trkpt>
      <trkpt lat="43.81876" lon="6.99284">
        <ele>1598.3</ele>
        <time>2009-10-24T09:20:23Z</time>
      </trkpt>
      <trkpt lat="43.81848" lon="6.99267">
        <ele>1597.8</ele>
        <time>2009-10-24T09:21:10Z</time>
      </trkpt>
      <trkpt lat="43.81822" lon="6.99255">
        <ele>1599.3</ele>
        <time>2009-10-24T09:21:33Z</time>
      </trkpt>
      <trkpt lat="43.81795" lon="6.99246">
        <ele>1597.4</ele>
        <time>2009-10-24T09:22:00Z</time>
      </trkpt>
      <trkpt lat="43.81778" lon="6.99215">
        <ele>1595.4</ele>
        <time>2009-10-24T09:22:26Z</time>
      </trkpt>
      <trkpt lat="43.8176" lon="6.99188">
        <ele>1597.4</ele>
        <time>2009-10-24T09:22:53Z</time>
      </trkpt>
      <trkpt lat="43.81737" lon="6.99163">
        <ele>1604.1</ele>
        <time>2009-10-24T09:23:56Z</time>
      </trkpt>
      <trkpt lat="43.81713" lon="6.99145">
        <ele>1606</ele>
        <time>2009-10-24T09:24:30Z</time>
      </trkpt>
      <trkpt lat="43.81699" lon="6.99112">
        <ele>1602.7</ele>
        <time>2009-10-24T09:25:02Z</time>
      </trkpt>
      <trkpt lat="43.81689" lon="6.99077">
        <ele>1602.2</ele>
        <time>2009-10-24T09:25:30Z</time>
      </trkpt>
      <trkpt lat="43.81684" lon="6.99038">
        <ele>1605.1</ele>
        <time>2009-10-24T09:26:04Z</time>
      </trkpt>
      <trkpt lat="43.81688" lon="6.98999">
        <ele>1611.8</ele>
        <time>2009-10-24T09:27:24Z</time>
      </trkpt>
      <trkpt lat="43.81694" lon="6.98969">
        <ele>1619.5</ele>
        <time>2009-10-24T09:28:12Z</time>
      </trkpt>
      <trkpt lat="43.81697" lon="6.98931">
        <ele>1627.6</ele>
        <time>2009-10-24T09:29:37Z</time>
      </trkpt>
      <trkpt lat="43.81694" lon="6.98892">
        <ele>1639.7</ele>
        <time>2009-10-24T09:30:55Z</time>
      </trkpt>
      <trkpt lat="43.81699" lon="6.98855">
        <ele>1650.2</ele>
        <time>2009-10-24T09:31:56Z</time>
      </trkpt>
      <trkpt lat="43.817" lon="6.98827">
        <ele>1660.3</ele>
        <time>2009-10-24T09:32:47Z</time>
      </trkpt>
      <trkpt lat="43.81708" lon="6.98789">
        <ele>1670.9</ele>
        <time>2009-10-24T09:33:58Z</time>
      </trkpt>
      <trkpt lat="43.817" lon="6.98755">
        <ele>1680</ele>
        <time>2009-10-24T09:35:05Z</time>
      </trkpt>
      <trkpt lat="43.81694" lon="6.98718">
        <ele>1694</ele>
        <time>2009-10-24T09:36:08Z</time>
      </trkpt>
      <trkpt lat="43.81685" lon="6.98679">
        <ele>1706</ele>
        <time>2009-10-24T09:37:35Z</time>
      </trkpt>
      <trkpt lat="43.81687" lon="6.98633">
        <ele>1719.9</ele>
        <time>2009-10-24T09:38:53Z</time>
      </trkpt>
      <trkpt lat="43.81674" lon="6.98606">
        <ele>1734.4</ele>
        <time>2009-10-24T09:40:04Z</time>
      </trkpt>
      <trkpt lat="43.81666" lon="6.9856">
        <ele>1748.3</ele>
        <time>2009-10-24T09:41:36Z</time>
      </trkpt>
      <trkpt lat="43.8168" lon="6.98547">
        <ele>1757.4</ele>
        <time>2009-10-24T10:06:39Z</time>
      </trkpt>
      <trkpt lat="43.81698" lon="6.98532">
        <ele>1749.7</ele>
        <time>2009-10-24T10:13:49Z</time>
      </trkpt>
      <trkpt lat="43.81714" lon="6.98499">
        <ele>1746.4</ele>
        <time>2009-10-24T10:14:24Z</time>
      </trkpt>
      <trkpt lat="43.81709" lon="6.98459">
        <ele>1746.9</ele>
        <time>2009-10-24T10:15:08Z</time>
      </trkpt>
      <trkpt lat="43.81702" lon="6.98414">
        <ele>1744.4</ele>
        <time>2009-10-24T10:16:51Z</time>
      </trkpt>
      <trkpt lat="43.81695" lon="6.98379">
        <ele>1740.1</ele>
        <time>2009-10-24T10:17:06Z</time>
      </trkpt>
      <trkpt lat="43.81685" lon="6.98343">
        <ele>1737.2</ele>
        <time>2009-10-24T10:17:25Z</time>
      </trkpt>
      <trkpt lat="43.81683" lon="6.98303">
        <ele>1735.8</ele>
        <time>2009-10-24T10:17:39Z</time>
      </trkpt>
      <trkpt lat="43.81676" lon="6.98267">
        <ele>1733.4</ele>
        <time>2009-10-24T10:17:53Z</time>
      </trkpt>
      <trkpt lat="43.81668" lon="6.9823">
        <ele>1733.4</ele>
        <time>2009-10-24T10:18:34Z</time>
      </trkpt>
      <trkpt lat="43.81671" lon="6.98186">
        <ele>1730.5</ele>
        <time>2009-10-24T10:18:42Z</time>
      </trkpt>
      <trkpt lat="43.8168" lon="6.98154">
        <ele>1722.8</ele>
        <time>2009-10-24T10:18:49Z</time>
      </trkpt>
      <trkpt lat="43.81706" lon="6.98142">
        <ele>1712.2</ele>
        <time>2009-10-24T10:19:00Z</time>
      </trkpt>
      <trkpt lat="43.81734" lon="6.98129">
        <ele>1704.1</ele>
        <time>2009-10-24T10:19:09Z</time>
      </trkpt>
      <trkpt lat="43.81761" lon="6.98126">
        <ele>1694.9</ele>
        <time>2009-10-24T10:19:17Z</time>
      </trkpt>
      <trkpt lat="43.81787" lon="6.98143">
        <ele>1683.9</ele>
        <time>2009-10-24T10:19:29Z</time>
      </trkpt>
      <trkpt lat="43.81816" lon="6.98143">
        <ele>1674.3</ele>
        <time>2009-10-24T10:19:37Z</time>
      </trkpt>
      <trkpt lat="43.81844" lon="6.98133">
        <ele>1662.7</ele>
        <time>2009-10-24T10:19:46Z</time>
      </trkpt>
      <trkpt lat="43.81872" lon="6.98122">
        <ele>1654.1</ele>
        <time>2009-10-24T10:19:55Z</time>
      </trkpt>
      <trkpt lat="43.81901" lon="6.98118">
        <ele>1647.4</ele>
        <time>2009-10-24T10:20:02Z</time>
      </trkpt>
      <trkpt lat="43.8193" lon="6.98105">
        <ele>1637.7</ele>
        <time>2009-10-24T10:20:08Z</time>
      </trkpt>
      <trkpt lat="43.81956" lon="6.98096">
        <ele>1630.1</ele>
        <time>2009-10-24T10:20:13Z</time>
      </trkpt>
      <trkpt lat="43.81983" lon="6.98082">
        <ele>1624.3</ele>
        <time>2009-10-24T10:20:18Z</time>
      </trkpt>
      <trkpt lat="43.82008" lon="6.98073">
        <ele>1619.5</ele>
        <time>2009-10-24T10:20:40Z</time>
      </trkpt>
      <trkpt lat="43.82037" lon="6.98072">
        <ele>1614.7</ele>
        <time>2009-10-24T10:20:48Z</time>
      </trkpt>
      <trkpt lat="43.82065" lon="6.9806">
        <ele>1610.8</ele>
        <time>2009-10-24T10:20:54Z</time>
      </trkpt>
      <trkpt lat="43.82095" lon="6.9804">
        <ele>1607.5</ele>
        <time>2009-10-24T10:21:00Z</time>
      </trkpt>
      <trkpt lat="43.82123" lon="6.98023">
        <ele>1604.1</ele>
        <time>2009-10-24T10:21:05Z</time>
      </trkpt>
      <trkpt lat="43.82147" lon="6.98006">
        <ele>1601.2</ele>
        <time>2009-10-24T10:21:12Z</time>
      </trkpt>
      <trkpt lat="43.82165" lon="6.97978">
        <ele>1597.4</ele>
        <time>2009-10-24T10:21:29Z</time>
      </trkpt>
      <trkpt lat="43.82183" lon="6.97951">
        <ele>1592.1</ele>
        <time>2009-10-24T10:21:37Z</time>
      </trkpt>
      <trkpt lat="43.82204" lon="6.9793">
        <ele>1583.4</ele>
        <time>2009-10-24T10:21:47Z</time>
      </trkpt>
      <trkpt lat="43.82231" lon="6.97919">
        <ele>1575.3</ele>
        <time>2009-10-24T10:21:58Z</time>
      </trkpt>
      <trkpt lat="43.82258" lon="6.9791">
        <ele>1567.1</ele>
        <time>2009-10-24T10:22:10Z</time>
      </trkpt>
      <trkpt lat="43.82288" lon="6.97899">
        <ele>1561.8</ele>
        <time>2009-10-24T10:22:20Z</time>
      </trkpt>
      <trkpt lat="43.82317" lon="6.97888">
        <ele>1553.1</ele>
        <time>2009-10-24T10:22:26Z</time>
      </trkpt>
      <trkpt lat="43.82343" lon="6.97877">
        <ele>1544.5</ele>
        <time>2009-10-24T10:22:33Z</time>
      </trkpt>
      <trkpt lat="43.8237" lon="6.9787">
        <ele>1535.8</ele>
        <time>2009-10-24T10:22:41Z</time>
      </trkpt>
      <trkpt lat="43.82397" lon="6.97858">
        <ele>1532.5</ele>
        <time>2009-10-24T10:22:47Z</time>
      </trkpt>
      <trkpt lat="43.82426" lon="6.97851">
        <ele>1532</ele>
        <time>2009-10-24T10:22:55Z</time>
      </trkpt>
      <trkpt lat="43.82456" lon="6.97853">
        <ele>1529.6</ele>
        <time>2009-10-24T10:23:03Z</time>
      </trkpt>
      <trkpt lat="43.82482" lon="6.97868">
        <ele>1526.2</ele>
        <time>2009-10-24T10:23:08Z</time>
      </trkpt>
      <trkpt lat="43.8251" lon="6.97873">
        <ele>1520.9</ele>
        <time>2009-10-24T10:23:13Z</time>
      </trkpt>
      <trkpt lat="43.82541" lon="6.97863">
        <ele>1513.3</ele>
        <time>2009-10-24T10:23:19Z</time>
      </trkpt>
      <trkpt lat="43.8257" lon="6.9785">
        <ele>1506</ele>
        <time>2009-10-24T10:23:24Z</time>
      </trkpt>
      <trkpt lat="43.82594" lon="6.97829">
        <ele>1501.2</ele>
        <time>2009-10-24T10:23:28Z</time>
      </trkpt>
      <trkpt lat="43.82615" lon="6.97792">
        <ele>1498.8</ele>
        <time>2009-10-24T10:23:32Z</time>
      </trkpt>
      <trkpt lat="43.82632" lon="6.97749">
        <ele>1495.5</ele>
        <time>2009-10-24T10:23:36Z</time>
      </trkpt>
      <trkpt lat="43.82646" lon="6.97713">
        <ele>1492.6</ele>
        <time>2009-10-24T10:23:39Z</time>
      </trkpt>
      <trkpt lat="43.82665" lon="6.97679">
        <ele>1489.7</ele>
        <time>2009-10-24T10:23:43Z</time>
      </trkpt>
      <trkpt lat="43.82678" lon="6.97645">
        <ele>1486.3</ele>
        <time>2009-10-24T10:23:48Z</time>
      </trkpt>
      <trkpt lat="43.82694" lon="6.97615">
        <ele>1481.5</ele>
        <time>2009-10-24T10:23:52Z</time>
      </trkpt>
      <trkpt lat="43.82711" lon="6.97586">
        <ele>1476.7</ele>
        <time>2009-10-24T10:23:56Z</time>
      </trkpt>
      <trkpt lat="43.82732" lon="6.97561">
        <ele>1469.5</ele>
        <time>2009-10-24T10:24:01Z</time>
      </trkpt>
      <trkpt lat="43.82757" lon="6.97536">
        <ele>1461.3</ele>
        <time>2009-10-24T10:24:08Z</time>
      </trkpt>
      <trkpt lat="43.82774" lon="6.97507">
        <ele>1453.2</ele>
        <time>2009-10-24T10:24:15Z</time>
      </trkpt>
      <trkpt lat="43.82796" lon="6.97475">
        <ele>1446</ele>
        <time>2009-10-24T10:24:21Z</time>
      </trkpt>
      <trkpt lat="43.82815" lon="6.97442">
        <ele>1439.7</ele>
        <time>2009-10-24T10:24:26Z</time>
      </trkpt>
      <trkpt lat="43.82831" lon="6.9741">
        <ele>1437.3</ele>
        <time>2009-10-24T10:24:31Z</time>
      </trkpt>
      <trkpt lat="43.82846" lon="6.9738">
        <ele>1434.4</ele>
        <time>2009-10-24T10:24:35Z</time>
      </trkpt>
      <trkpt lat="43.82864" lon="6.97345">
        <ele>1431.1</ele>
        <time>2009-10-24T10:24:39Z</time>
      </trkpt>
      <trkpt lat="43.82884" lon="6.9731">
        <ele>1427.7</ele>
        <time>2009-10-24T10:24:44Z</time>
      </trkpt>
      <trkpt lat="43.82902" lon="6.9727">
        <ele>1424.3</ele>
        <time>2009-10-24T10:24:48Z</time>
      </trkpt>
      <trkpt lat="43.82918" lon="6.97233">
        <ele>1419</ele>
        <time>2009-10-24T10:24:51Z</time>
      </trkpt>
      <trkpt lat="43.82937" lon="6.97197">
        <ele>1413.8</ele>
        <time>2009-10-24T10:24:54Z</time>
      </trkpt>
      <trkpt lat="43.82954" lon="6.97164">
        <ele>1409.4</ele>
        <time>2009-10-24T10:24:57Z</time>
      </trkpt>
      <trkpt lat="43.8297" lon="6.97127">
        <ele>1406.1</ele>
        <time>2009-10-24T10:25:00Z</time>
      </trkpt>
      <trkpt lat="43.82983" lon="6.9709">
        <ele>1405.1</ele>
        <time>2009-10-24T10:25:03Z</time>
      </trkpt>
      <trkpt lat="43.82995" lon="6.97054">
        <ele>1401.3</ele>
        <time>2009-10-24T10:25:08Z</time>
      </trkpt>
      <trkpt lat="43.83015" lon="6.97074">
        <ele>1398.4</ele>
        <time>2009-10-24T10:25:21Z</time>
      </trkpt>
      <trkpt lat="43.83035" lon="6.97096">
        <ele>1395.5</ele>
        <time>2009-10-24T10:25:35Z</time>
      </trkpt>
      <trkpt lat="43.8304" lon="6.97093">
        <ele>1394.5</ele>
        <time>2009-10-24T10:26:28Z</time>
      </trkpt>
      <trkpt lat="43.8303" lon="6.97103">
        <ele>1394</ele>
        <time>2009-10-24T10:26:47Z</time>
      </trkpt>
      <trkpt lat="43.83017" lon="6.97076">
        <ele>1392.6</ele>
        <time>2009-10-24T10:26:57Z</time>
      </trkpt>
      <trkpt lat="43.83014" lon="6.97034">
        <ele>1392.1</ele>
        <time>2009-10-24T10:27:05Z</time>
      </trkpt>
      <trkpt lat="43.83012" lon="6.96992">
        <ele>1393.1</ele>
        <time>2009-10-24T10:27:12Z</time>
      </trkpt>
      <trkpt lat="43.83006" lon="6.96951">
        <ele>1393.1</ele>
        <time>2009-10-24T10:27:19Z</time>
      </trkpt>
      <trkpt lat="43.83" lon="6.96912">
        <ele>1393.1</ele>
        <time>2009-10-24T10:27:26Z</time>
      </trkpt>
      <trkpt lat="43.82997" lon="6.96873">
        <ele>1394</ele>
        <time>2009-10-24T10:27:33Z</time>
      </trkpt>
      <trkpt lat="43.82993" lon="6.96834">
        <ele>1393.6</ele>
        <time>2009-10-24T10:27:40Z</time>
      </trkpt>
      <trkpt lat="43.82992" lon="6.96792">
        <ele>1394</ele>
        <time>2009-10-24T10:27:47Z</time>
      </trkpt>
      <trkpt lat="43.82989" lon="6.96753">
        <ele>1396</ele>
        <time>2009-10-24T10:27:54Z</time>
      </trkpt>
      <trkpt lat="43.82982" lon="6.96714">
        <ele>1397.4</ele>
        <time>2009-10-24T10:28:01Z</time>
      </trkpt>
      <trkpt lat="43.82975" lon="6.96674">
        <ele>1398.4</ele>
        <time>2009-10-24T10:28:09Z</time>
      </trkpt>
      <trkpt lat="43.82983" lon="6.96639">
        <ele>1396.5</ele>
        <time>2009-10-24T10:28:18Z</time>
      </trkpt>
      <trkpt lat="43.82996" lon="6.96606">
        <ele>1394.5</ele>
        <time>2009-10-24T10:29:14Z</time>
      </trkpt>
      <trkpt lat="43.83013" lon="6.96566">
        <ele>1395.5</ele>
        <time>2009-10-24T10:29:21Z</time>
      </trkpt>
      <trkpt lat="43.83029" lon="6.96526">
        <ele>1394.5</ele>
        <time>2009-10-24T10:29:26Z</time>
      </trkpt>
      <trkpt lat="43.83044" lon="6.96487">
        <ele>1391.6</ele>
        <time>2009-10-24T10:29:30Z</time>
      </trkpt>
      <trkpt lat="43.8306" lon="6.96443">
        <ele>1390.2</ele>
        <time>2009-10-24T10:29:34Z</time>
      </trkpt>
      <trkpt lat="43.83072" lon="6.96407">
        <ele>1388.3</ele>
        <time>2009-10-24T10:29:37Z</time>
      </trkpt>
      <trkpt lat="43.83085" lon="6.9637">
        <ele>1386.4</ele>
        <time>2009-10-24T10:29:40Z</time>
      </trkpt>
      <trkpt lat="43.83096" lon="6.96331">
        <ele>1385.4</ele>
        <time>2009-10-24T10:29:43Z</time>
      </trkpt>
      <trkpt lat="43.83105" lon="6.96293">
        <ele>1384</ele>
        <time>2009-10-24T10:29:46Z</time>
      </trkpt>
      <trkpt lat="43.83111" lon="6.96256">
        <ele>1383</ele>
        <time>2009-10-24T10:29:49Z</time>
      </trkpt>
      <trkpt lat="43.83114" lon="6.96206">
        <ele>1382.5</ele>
        <time>2009-10-24T10:29:53Z</time>
      </trkpt>
      <trkpt lat="43.83112" lon="6.96162">
        <ele>1381.6</ele>
        <time>2009-10-24T10:29:57Z</time>
      </trkpt>
      <trkpt lat="43.8311" lon="6.96121">
        <ele>1381.6</ele>
        <time>2009-10-24T10:30:01Z</time>
      </trkpt>
      <trkpt lat="43.83107" lon="6.96083">
        <ele>1383.5</ele>
        <time>2009-10-24T10:30:05Z</time>
      </trkpt>
      <trkpt lat="43.83106" lon="6.96045">
        <ele>1385.4</ele>
        <time>2009-10-24T10:30:10Z</time>
      </trkpt>
      <trkpt lat="43.83111" lon="6.96005">
        <ele>1389.2</ele>
        <time>2009-10-24T10:30:19Z</time>
      </trkpt>
      <trkpt lat="43.83134" lon="6.95986">
        <ele>1392.1</ele>
        <time>2009-10-24T10:30:28Z</time>
      </trkpt>
      <trkpt lat="43.83158" lon="6.95971">
        <ele>1394</ele>
        <time>2009-10-24T10:30:36Z</time>
      </trkpt>
      <trkpt lat="43.83175" lon="6.95947">
        <ele>1394.5</ele>
        <time>2009-10-24T10:30:44Z</time>
      </trkpt>
      <trkpt lat="43.83147" lon="6.9594">
        <ele>1394</ele>
        <time>2009-10-24T10:30:50Z</time>
      </trkpt>
      <trkpt lat="43.8312" lon="6.95931">
        <ele>1394.5</ele>
        <time>2009-10-24T10:30:55Z</time>
      </trkpt>
      <trkpt lat="43.8309" lon="6.95913">
        <ele>1395</ele>
        <time>2009-10-24T10:31:01Z</time>
      </trkpt>
      <trkpt lat="43.83066" lon="6.95889">
        <ele>1396.5</ele>
        <time>2009-10-24T10:31:08Z</time>
      </trkpt>
      <trkpt lat="43.83048" lon="6.95861">
        <ele>1398.4</ele>
        <time>2009-10-24T10:31:16Z</time>
      </trkpt>
      <trkpt lat="43.83033" lon="6.95825">
        <ele>1399.8</ele>
        <time>2009-10-24T10:31:24Z</time>
      </trkpt>
      <trkpt lat="43.83022" lon="6.95788">
        <ele>1400.8</ele>
        <time>2009-10-24T10:31:32Z</time>
      </trkpt>
      <trkpt lat="43.83017" lon="6.95748">
        <ele>1402.7</ele>
        <time>2009-10-24T10:31:40Z</time>
      </trkpt>
      <trkpt lat="43.8302" lon="6.95709">
        <ele>1406.5</ele>
        <time>2009-10-24T10:31:48Z</time>
      </trkpt>
      <trkpt lat="43.83025" lon="6.95669">
        <ele>1407</ele>
        <time>2009-10-24T10:31:56Z</time>
      </trkpt>
      <trkpt lat="43.83035" lon="6.95634">
        <ele>1405.6</ele>
        <time>2009-10-24T10:32:05Z</time>
      </trkpt>
      <trkpt lat="43.83052" lon="6.956">
        <ele>1406.5</ele>
        <time>2009-10-24T10:32:15Z</time>
      </trkpt>
      <trkpt lat="43.83071" lon="6.95571">
        <ele>1406.1</ele>
        <time>2009-10-24T10:32:24Z</time>
      </trkpt>
      <trkpt lat="43.83091" lon="6.95546">
        <ele>1407</ele>
        <time>2009-10-24T10:32:33Z</time>
      </trkpt>
      <trkpt lat="43.83112" lon="6.95519">
        <ele>1407</ele>
        <time>2009-10-24T10:32:42Z</time>
      </trkpt>
      <trkpt lat="43.83135" lon="6.95492">
        <ele>1407</ele>
        <time>2009-10-24T10:32:50Z</time>
      </trkpt>
      <trkpt lat="43.83157" lon="6.9546">
        <ele>1408</ele>
        <time>2009-10-24T10:32:57Z</time>
      </trkpt>
      <trkpt lat="43.83175" lon="6.95431">
        <ele>1408.9</ele>
        <time>2009-10-24T10:33:03Z</time>
      </trkpt>
      <trkpt lat="43.83187" lon="6.95398">
        <ele>1408</ele>
        <time>2009-10-24T10:33:09Z</time>
      </trkpt>
      <trkpt lat="43.83197" lon="6.95359">
        <ele>1407.5</ele>
        <time>2009-10-24T10:33:15Z</time>
      </trkpt>
      <trkpt lat="43.83202" lon="6.95317">
        <ele>1407.5</ele>
        <time>2009-10-24T10:33:21Z</time>
      </trkpt>
      <trkpt lat="43.83204" lon="6.95275">
        <ele>1406.5</ele>
        <time>2009-10-24T10:33:27Z</time>
      </trkpt>
      <trkpt lat="43.83205" lon="6.95229">
        <ele>1405.6</ele>
        <time>2009-10-24T10:33:33Z</time>
      </trkpt>
      <trkpt lat="43.83203" lon="6.95187">
        <ele>1405.1</ele>
        <time>2009-10-24T10:33:38Z</time>
      </trkpt>
      <trkpt lat="43.83199" lon="6.95145">
        <ele>1403.2</ele>
        <time>2009-10-24T10:33:43Z</time>
      </trkpt>
      <trkpt lat="43.83193" lon="6.95101">
        <ele>1402.2</ele>
        <time>2009-10-24T10:33:48Z</time>
      </trkpt>
      <trkpt lat="43.83187" lon="6.95065">
        <ele>1400.8</ele>
        <time>2009-10-24T10:33:52Z</time>
      </trkpt>
      <trkpt lat="43.83177" lon="6.95029">
        <ele>1400.3</ele>
        <time>2009-10-24T10:33:56Z</time>
      </trkpt>
      <trkpt lat="43.83165" lon="6.94995">
        <ele>1400.3</ele>
        <time>2009-10-24T10:34:00Z</time>
      </trkpt>
      <trkpt lat="43.83152" lon="6.94961">
        <ele>1399.3</ele>
        <time>2009-10-24T10:34:04Z</time>
      </trkpt>
      <trkpt lat="43.83133" lon="6.94923">
        <ele>1398.4</ele>
        <time>2009-10-24T10:34:09Z</time>
      </trkpt>
      <trkpt lat="43.83115" lon="6.94888">
        <ele>1398.4</ele>
        <time>2009-10-24T10:34:14Z</time>
      </trkpt>
      <trkpt lat="43.83094" lon="6.94856">
        <ele>1398.4</ele>
        <time>2009-10-24T10:34:19Z</time>
      </trkpt>
      <trkpt lat="43.8307" lon="6.94828">
        <ele>1398.4</ele>
        <time>2009-10-24T10:34:24Z</time>
      </trkpt>
      <trkpt lat="43.83043" lon="6.94804">
        <ele>1397.9</ele>
        <time>2009-10-24T10:34:29Z</time>
      </trkpt>
      <trkpt lat="43.83014" lon="6.94786">
        <ele>1397.4</ele>
        <time>2009-10-24T10:34:34Z</time>
      </trkpt>
      <trkpt lat="43.82984" lon="6.94773">
        <ele>1396.9</ele>
        <time>2009-10-24T10:34:39Z</time>
      </trkpt>
      <trkpt lat="43.82955" lon="6.94765">
        <ele>1397.9</ele>
        <time>2009-10-24T10:34:44Z</time>
      </trkpt>
      <trkpt lat="43.82926" lon="6.94763">
        <ele>1398.9</ele>
        <time>2009-10-24T10:34:50Z</time>
      </trkpt>
      <trkpt lat="43.82899" lon="6.94767">
        <ele>1400.3</ele>
        <time>2009-10-24T10:34:57Z</time>
      </trkpt>
      <trkpt lat="43.82872" lon="6.94785">
        <ele>1403.7</ele>
        <time>2009-10-24T10:35:04Z</time>
      </trkpt>
      <trkpt lat="43.82848" lon="6.94807">
        <ele>1405.6</ele>
        <time>2009-10-24T10:35:12Z</time>
      </trkpt>
      <trkpt lat="43.82821" lon="6.94822">
        <ele>1407.5</ele>
        <time>2009-10-24T10:35:20Z</time>
      </trkpt>
      <trkpt lat="43.82795" lon="6.94811">
        <ele>1410.4</ele>
        <time>2009-10-24T10:35:29Z</time>
      </trkpt>
      <trkpt lat="43.82786" lon="6.94774">
        <ele>1411.8</ele>
        <time>2009-10-24T10:35:39Z</time>
      </trkpt>
      <trkpt lat="43.82801" lon="6.94741">
        <ele>1414.2</ele>
        <time>2009-10-24T10:35:49Z</time>
      </trkpt>
      <trkpt lat="43.82822" lon="6.94715">
        <ele>1416.2</ele>
        <time>2009-10-24T10:35:59Z</time>
      </trkpt>
      <trkpt lat="43.82845" lon="6.94692">
        <ele>1417.1</ele>
        <time>2009-10-24T10:36:09Z</time>
      </trkpt>
      <trkpt lat="43.82869" lon="6.9467">
        <ele>1417.1</ele>
        <time>2009-10-24T10:36:19Z</time>
      </trkpt>
      <trkpt lat="43.82893" lon="6.94649">
        <ele>1419</ele>
        <time>2009-10-24T10:36:29Z</time>
      </trkpt>
      <trkpt lat="43.82916" lon="6.94628">
        <ele>1421.4</ele>
        <time>2009-10-24T10:36:39Z</time>
      </trkpt>
      <trkpt lat="43.82936" lon="6.94606">
        <ele>1422.9</ele>
        <time>2009-10-24T10:36:49Z</time>
      </trkpt>
      <trkpt lat="43.82956" lon="6.94579">
        <ele>1423.4</ele>
        <time>2009-10-24T10:37:01Z</time>
      </trkpt>
      <trkpt lat="43.8293" lon="6.94578">
        <ele>1424.8</ele>
        <time>2009-10-24T10:37:19Z</time>
      </trkpt>
      <trkpt lat="43.82898" lon="6.9459">
        <ele>1424.8</ele>
        <time>2009-10-24T10:41:02Z</time>
      </trkpt>
      <trkpt lat="43.82873" lon="6.94605">
        <ele>1426.3</ele>
        <time>2009-10-24T10:41:15Z</time>
      </trkpt>
      <trkpt lat="43.82854" lon="6.94592">
        <ele>1427.2</ele>
        <time>2009-10-24T10:41:42Z</time>
      </trkpt>
      <trkpt lat="43.82828" lon="6.94583">
        <ele>1429.1</ele>
        <time>2009-10-24T10:42:00Z</time>
      </trkpt>
      <trkpt lat="43.828" lon="6.94585">
        <ele>1432</ele>
        <time>2009-10-24T10:42:17Z</time>
      </trkpt>
      <trkpt lat="43.82774" lon="6.94586">
        <ele>1435.9</ele>
        <time>2009-10-24T10:42:38Z</time>
      </trkpt>
      <trkpt lat="43.82747" lon="6.94582">
        <ele>1441.6</ele>
        <time>2009-10-24T10:43:01Z</time>
      </trkpt>
      <trkpt lat="43.82719" lon="6.94574">
        <ele>1441.6</ele>
        <time>2009-10-24T10:43:22Z</time>
      </trkpt>
      <trkpt lat="43.82693" lon="6.94562">
        <ele>1445</ele>
        <time>2009-10-24T10:43:40Z</time>
      </trkpt>
      <trkpt lat="43.82667" lon="6.94556">
        <ele>1445.5</ele>
        <time>2009-10-24T10:43:59Z</time>
      </trkpt>
      <trkpt lat="43.82641" lon="6.94543">
        <ele>1447.9</ele>
        <time>2009-10-24T10:44:17Z</time>
      </trkpt>
      <trkpt lat="43.82616" lon="6.94556">
        <ele>1449.8</ele>
        <time>2009-10-24T10:44:38Z</time>
      </trkpt>
      <trkpt lat="43.82592" lon="6.94585">
        <ele>1451.2</ele>
        <time>2009-10-24T10:45:21Z</time>
      </trkpt>
      <trkpt lat="43.82565" lon="6.9458">
        <ele>1451.7</ele>
        <time>2009-10-24T10:45:37Z</time>
      </trkpt>
      <trkpt lat="43.82536" lon="6.94569">
        <ele>1452.2</ele>
        <time>2009-10-24T10:45:54Z</time>
      </trkpt>
      <trkpt lat="43.82506" lon="6.94574">
        <ele>1455.1</ele>
        <time>2009-10-24T10:46:22Z</time>
      </trkpt>
      <trkpt lat="43.8248" lon="6.9457">
        <ele>1457</ele>
        <time>2009-10-24T10:46:43Z</time>
      </trkpt>
      <trkpt lat="43.82454" lon="6.94589">
        <ele>1463.7</ele>
        <time>2009-10-24T10:47:11Z</time>
      </trkpt>
      <trkpt lat="43.82424" lon="6.94609">
        <ele>1468.1</ele>
        <time>2009-10-24T10:48:03Z</time>
      </trkpt>
      <trkpt lat="43.82392" lon="6.94634">
        <ele>1473.8</ele>
        <time>2009-10-24T10:49:08Z</time>
      </trkpt>
      <trkpt lat="43.8236" lon="6.94654">
        <ele>1482</ele>
        <time>2009-10-24T10:49:54Z</time>
      </trkpt>
      <trkpt lat="43.82333" lon="6.94657">
        <ele>1483</ele>
        <time>2009-10-24T10:50:43Z</time>
      </trkpt>
      <trkpt lat="43.82301" lon="6.94657">
        <ele>1478.6</ele>
        <time>2009-10-24T10:51:18Z</time>
      </trkpt>
      <trkpt lat="43.82274" lon="6.94669">
        <ele>1483.5</ele>
        <time>2009-10-24T10:51:48Z</time>
      </trkpt>
      <trkpt lat="43.82247" lon="6.94668">
        <ele>1486.8</ele>
        <time>2009-10-24T10:52:57Z</time>
      </trkpt>
      <trkpt lat="43.82221" lon="6.9468">
        <ele>1486.3</ele>
        <time>2009-10-24T10:53:17Z</time>
      </trkpt>
      <trkpt lat="43.82195" lon="6.94701">
        <ele>1489.2</ele>
        <time>2009-10-24T10:54:04Z</time>
      </trkpt>
      <trkpt lat="43.82167" lon="6.94696">
        <ele>1489.7</ele>
        <time>2009-10-24T10:54:18Z</time>
      </trkpt>
      <trkpt lat="43.8214" lon="6.94694">
        <ele>1490.2</ele>
        <time>2009-10-24T10:54:27Z</time>
      </trkpt>
      <trkpt lat="43.8211" lon="6.94696">
        <ele>1491.6</ele>
        <time>2009-10-24T10:54:37Z</time>
      </trkpt>
      <trkpt lat="43.82082" lon="6.94693">
        <ele>1490.7</ele>
        <time>2009-10-24T10:54:48Z</time>
      </trkpt>
      <trkpt lat="43.82053" lon="6.9468">
        <ele>1492.1</ele>
        <time>2009-10-24T10:54:58Z</time>
      </trkpt>
      <trkpt lat="43.82026" lon="6.94679">
        <ele>1496.9</ele>
        <time>2009-10-24T10:55:53Z</time>
      </trkpt>
      <trkpt lat="43.81993" lon="6.9467">
        <ele>1495.5</ele>
        <time>2009-10-24T10:56:09Z</time>
      </trkpt>
      <trkpt lat="43.81952" lon="6.94665">
        <ele>1500.8</ele>
        <time>2009-10-24T10:56:46Z</time>
      </trkpt>
      <trkpt lat="43.81905" lon="6.94634">
        <ele>1501.2</ele>
        <time>2009-10-24T10:57:57Z</time>
      </trkpt>
      <trkpt lat="43.81892" lon="6.94584">
        <ele>1510.4</ele>
        <time>2009-10-24T10:59:09Z</time>
      </trkpt>
      <trkpt lat="43.8187" lon="6.94557">
        <ele>1509.4</ele>
        <time>2009-10-24T11:00:18Z</time>
      </trkpt>
      <trkpt lat="43.81847" lon="6.94558">
        <ele>1503.2</ele>
        <time>2009-10-24T11:01:25Z</time>
      </trkpt>
      <trkpt lat="43.81821" lon="6.94548">
        <ele>1494.5</ele>
        <time>2009-10-24T11:02:12Z</time>
      </trkpt>
      <trkpt lat="43.81792" lon="6.94537">
        <ele>1491.1</ele>
        <time>2009-10-24T11:02:23Z</time>
      </trkpt>
      <trkpt lat="43.81777" lon="6.94509">
        <ele>1492.1</ele>
        <time>2009-10-24T11:02:38Z</time>
      </trkpt>
      <trkpt lat="43.81758" lon="6.94504">
        <ele>1488.7</ele>
        <time>2009-10-24T11:03:19Z</time>
      </trkpt>
      <trkpt lat="43.8174" lon="6.94491">
        <ele>1481</ele>
        <time>2009-10-24T11:03:43Z</time>
      </trkpt>
      <trkpt lat="43.81729" lon="6.94475">
        <ele>1474.3</ele>
        <time>2009-10-24T11:04:18Z</time>
      </trkpt>
      <trkpt lat="43.81705" lon="6.94489">
        <ele>1469.5</ele>
        <time>2009-10-24T11:04:32Z</time>
      </trkpt>
      <trkpt lat="43.81677" lon="6.94499">
        <ele>1465.2</ele>
        <time>2009-10-24T11:04:43Z</time>
      </trkpt>
      <trkpt lat="43.81649" lon="6.9449">
        <ele>1459.4</ele>
        <time>2009-10-24T11:04:57Z</time>
      </trkpt>
      <trkpt lat="43.81628" lon="6.94466">
        <ele>1450.8</ele>
        <time>2009-10-24T11:05:13Z</time>
      </trkpt>
      <trkpt lat="43.81598" lon="6.94449">
        <ele>1447.9</ele>
        <time>2009-10-24T11:05:27Z</time>
      </trkpt>
      <trkpt lat="43.81569" lon="6.94443">
        <ele>1446.9</ele>
        <time>2009-10-24T11:05:40Z</time>
      </trkpt>
      <trkpt lat="43.81544" lon="6.94427">
        <ele>1446.9</ele>
        <time>2009-10-24T11:05:52Z</time>
      </trkpt>
      <trkpt lat="43.81525" lon="6.94392">
        <ele>1445</ele>
        <time>2009-10-24T11:06:02Z</time>
      </trkpt>
      <trkpt lat="43.815" lon="6.94372">
        <ele>1442.1</ele>
        <time>2009-10-24T11:06:20Z</time>
      </trkpt>
      <trkpt lat="43.81475" lon="6.94354">
        <ele>1436.8</ele>
        <time>2009-10-24T11:06:36Z</time>
      </trkpt>
      <trkpt lat="43.81452" lon="6.94351">
        <ele>1436.8</ele>
        <time>2009-10-24T11:06:58Z</time>
      </trkpt>
      <trkpt lat="43.81427" lon="6.94331">
        <ele>1432</ele>
        <time>2009-10-24T11:07:19Z</time>
      </trkpt>
      <trkpt lat="43.81414" lon="6.94297">
        <ele>1429.1</ele>
        <time>2009-10-24T11:07:39Z</time>
      </trkpt>
      <trkpt lat="43.81406" lon="6.94262">
        <ele>1427.2</ele>
        <time>2009-10-24T11:08:01Z</time>
      </trkpt>
      <trkpt lat="43.81388" lon="6.94235">
        <ele>1425.3</ele>
        <time>2009-10-24T11:09:14Z</time>
      </trkpt>
      <trkpt lat="43.81369" lon="6.94229">
        <ele>1417.1</ele>
        <time>2009-10-24T11:09:34Z</time>
      </trkpt>
      <trkpt lat="43.81342" lon="6.94218">
        <ele>1413.8</ele>
        <time>2009-10-24T11:09:45Z</time>
      </trkpt>
      <trkpt lat="43.81312" lon="6.94219">
        <ele>1412.3</ele>
        <time>2009-10-24T11:09:54Z</time>
      </trkpt>
      <trkpt lat="43.81284" lon="6.94229">
        <ele>1411.4</ele>
        <time>2009-10-24T11:10:04Z</time>
      </trkpt>
      <trkpt lat="43.81258" lon="6.94225">
        <ele>1411.4</ele>
        <time>2009-10-24T11:10:30Z</time>
      </trkpt>
      <trkpt lat="43.81236" lon="6.94206">
        <ele>1409.9</ele>
        <time>2009-10-24T11:10:41Z</time>
      </trkpt>
      <trkpt lat="43.8122" lon="6.9418">
        <ele>1406.1</ele>
        <time>2009-10-24T11:10:51Z</time>
      </trkpt>
      <trkpt lat="43.81219" lon="6.94147">
        <ele>1401.3</ele>
        <time>2009-10-24T11:11:03Z</time>
      </trkpt>
      <trkpt lat="43.81208" lon="6.94108">
        <ele>1395</ele>
        <time>2009-10-24T11:11:21Z</time>
      </trkpt>
      <trkpt lat="43.81179" lon="6.94105">
        <ele>1393.6</ele>
        <time>2009-10-24T11:11:32Z</time>
      </trkpt>
      <trkpt lat="43.81151" lon="6.94099">
        <ele>1390.7</ele>
        <time>2009-10-24T11:11:44Z</time>
      </trkpt>
      <trkpt lat="43.81123" lon="6.94097">
        <ele>1385.9</ele>
        <time>2009-10-24T11:11:58Z</time>
      </trkpt>
      <trkpt lat="43.81098" lon="6.94113">
        <ele>1385.4</ele>
        <time>2009-10-24T11:12:12Z</time>
      </trkpt>
      <trkpt lat="43.81068" lon="6.9412">
        <ele>1385.9</ele>
        <time>2009-10-24T11:12:25Z</time>
      </trkpt>
      <trkpt lat="43.81043" lon="6.94131">
        <ele>1386.4</ele>
        <time>2009-10-24T11:12:39Z</time>
      </trkpt>
      <trkpt lat="43.81017" lon="6.94136">
        <ele>1385.9</ele>
        <time>2009-10-24T11:12:50Z</time>
      </trkpt>
      <trkpt lat="43.80992" lon="6.94147">
        <ele>1386.4</ele>
        <time>2009-10-24T11:13:01Z</time>
      </trkpt>
      <trkpt lat="43.80967" lon="6.94152">
        <ele>1384.9</ele>
        <time>2009-10-24T11:13:17Z</time>
      </trkpt>
      <trkpt lat="43.8094" lon="6.94152">
        <ele>1381.6</ele>
        <time>2009-10-24T11:13:31Z</time>
      </trkpt>
      <trkpt lat="43.80908" lon="6.94139">
        <ele>1381.1</ele>
        <time>2009-10-24T11:13:56Z</time>
      </trkpt>
      <trkpt lat="43.80878" lon="6.94145">
        <ele>1383</ele>
        <time>2009-10-24T11:14:10Z</time>
      </trkpt>
      <trkpt lat="43.80851" lon="6.94169">
        <ele>1387.3</ele>
        <time>2009-10-24T11:14:26Z</time>
      </trkpt>
      <trkpt lat="43.80826" lon="6.94206">
        <ele>1390.2</ele>
        <time>2009-10-24T11:14:42Z</time>
      </trkpt>
      <trkpt lat="43.80802" lon="6.94228">
        <ele>1391.6</ele>
        <time>2009-10-24T11:14:55Z</time>
      </trkpt>
      <trkpt lat="43.8078" lon="6.94244">
        <ele>1381.1</ele>
        <time>2009-10-24T11:20:02Z</time>
      </trkpt>
      <trkpt lat="43.80758" lon="6.94256">
        <ele>1371.9</ele>
        <time>2009-10-24T11:20:19Z</time>
      </trkpt>
      <trkpt lat="43.80743" lon="6.94259">
        <ele>1363.8</ele>
        <time>2009-10-24T11:20:44Z</time>
      </trkpt>
      <trkpt lat="43.80721" lon="6.94269">
        <ele>1356.6</ele>
        <time>2009-10-24T11:21:10Z</time>
      </trkpt>
      <trkpt lat="43.80725" lon="6.94233">
        <ele>1349.8</ele>
        <time>2009-10-24T11:21:35Z</time>
      </trkpt>
      <trkpt lat="43.80712" lon="6.94222">
        <ele>1340.7</ele>
        <time>2009-10-24T11:22:21Z</time>
      </trkpt>
      <trkpt lat="43.807" lon="6.94226">
        <ele>1337.3</ele>
        <time>2009-10-24T11:22:46Z</time>
      </trkpt>
      <trkpt lat="43.80692" lon="6.94221">
        <ele>1331.1</ele>
        <time>2009-10-24T11:23:03Z</time>
      </trkpt>
      <trkpt lat="43.80679" lon="6.94225">
        <ele>1323.4</ele>
        <time>2009-10-24T11:23:23Z</time>
      </trkpt>
      <trkpt lat="43.80664" lon="6.94239">
        <ele>1318.6</ele>
        <time>2009-10-24T11:23:44Z</time>
      </trkpt>
      <trkpt lat="43.80646" lon="6.94252">
        <ele>1310.9</ele>
        <time>2009-10-24T11:24:02Z</time>
      </trkpt>
      <trkpt lat="43.80637" lon="6.9425">
        <ele>1304.6</ele>
        <time>2009-10-24T11:24:19Z</time>
      </trkpt>
      <trkpt lat="43.80618" lon="6.9424">
        <ele>1300.8</ele>
        <time>2009-10-24T11:24:35Z</time>
      </trkpt>
      <trkpt lat="43.80611" lon="6.94277">
        <ele>1297</ele>
        <time>2009-10-24T11:24:44Z</time>
      </trkpt>
      <trkpt lat="43.806" lon="6.94247">
        <ele>1292.1</ele>
        <time>2009-10-24T11:24:57Z</time>
      </trkpt>
      <trkpt lat="43.80584" lon="6.94248">
        <ele>1288.8</ele>
        <time>2009-10-24T11:25:10Z</time>
      </trkpt>
      <trkpt lat="43.80577" lon="6.94277">
        <ele>1281.6</ele>
        <time>2009-10-24T11:25:25Z</time>
      </trkpt>
      <trkpt lat="43.80566" lon="6.94286">
        <ele>1275.8</ele>
        <time>2009-10-24T11:25:48Z</time>
      </trkpt>
      <trkpt lat="43.8055" lon="6.94318">
        <ele>1273.4</ele>
        <time>2009-10-24T11:26:01Z</time>
      </trkpt>
      <trkpt lat="43.80537" lon="6.94319">
        <ele>1268.1</ele>
        <time>2009-10-24T11:26:18Z</time>
      </trkpt>
      <trkpt lat="43.80528" lon="6.94309">
        <ele>1265.7</ele>
        <time>2009-10-24T11:26:36Z</time>
      </trkpt>
      <trkpt lat="43.80515" lon="6.94345">
        <ele>1260.4</ele>
        <time>2009-10-24T11:26:46Z</time>
      </trkpt>
      <trkpt lat="43.80499" lon="6.9438">
        <ele>1259</ele>
        <time>2009-10-24T11:26:54Z</time>
      </trkpt>
      <trkpt lat="43.80476" lon="6.944">
        <ele>1258.5</ele>
        <time>2009-10-24T11:27:05Z</time>
      </trkpt>
      <trkpt lat="43.80462" lon="6.94382">
        <ele>1256.6</ele>
        <time>2009-10-24T11:27:18Z</time>
      </trkpt>
      <trkpt lat="43.80437" lon="6.94393">
        <ele>1249.4</ele>
        <time>2009-10-24T11:27:31Z</time>
      </trkpt>
      <trkpt lat="43.8042" lon="6.94395">
        <ele>1245</ele>
        <time>2009-10-24T11:27:57Z</time>
      </trkpt>
      <trkpt lat="43.8041" lon="6.94363">
        <ele>1240.2</ele>
        <time>2009-10-24T11:28:12Z</time>
      </trkpt>
      <trkpt lat="43.80398" lon="6.9435">
        <ele>1233.5</ele>
        <time>2009-10-24T11:28:39Z</time>
      </trkpt>
      <trkpt lat="43.80388" lon="6.94311">
        <ele>1226.3</ele>
        <time>2009-10-24T11:28:59Z</time>
      </trkpt>
      <trkpt lat="43.80383" lon="6.94274">
        <ele>1223.4</ele>
        <time>2009-10-24T11:29:11Z</time>
      </trkpt>
      <trkpt lat="43.80376" lon="6.94241">
        <ele>1217.2</ele>
        <time>2009-10-24T11:29:36Z</time>
      </trkpt>
      <trkpt lat="43.80371" lon="6.94281">
        <ele>1212.8</ele>
        <time>2009-10-24T11:29:50Z</time>
      </trkpt>
      <trkpt lat="43.8036" lon="6.94281">
        <ele>1203.2</ele>
        <time>2009-10-24T11:30:04Z</time>
      </trkpt>
      <trkpt lat="43.80349" lon="6.94272">
        <ele>1195.5</ele>
        <time>2009-10-24T11:30:17Z</time>
      </trkpt>
      <trkpt lat="43.80338" lon="6.94257">
        <ele>1191.7</ele>
        <time>2009-10-24T11:30:31Z</time>
      </trkpt>
      <trkpt lat="43.80329" lon="6.94271">
        <ele>1189.8</ele>
        <time>2009-10-24T11:30:44Z</time>
      </trkpt>
      <trkpt lat="43.80319" lon="6.94307">
        <ele>1186.4</ele>
        <time>2009-10-24T11:30:56Z</time>
      </trkpt>
      <trkpt lat="43.80316" lon="6.94339">
        <ele>1181.6</ele>
        <time>2009-10-24T11:31:54Z</time>
      </trkpt>
      <trkpt lat="43.8031" lon="6.94369">
        <ele>1173.4</ele>
        <time>2009-10-24T11:32:12Z</time>
      </trkpt>
      <trkpt lat="43.80316" lon="6.94407">
        <ele>1166.7</ele>
        <time>2009-10-24T11:32:20Z</time>
      </trkpt>
      <trkpt lat="43.80313" lon="6.94426">
        <ele>1160.4</ele>
        <time>2009-10-24T11:32:50Z</time>
      </trkpt>
      <trkpt lat="43.80301" lon="6.94437">
        <ele>1160</ele>
        <time>2009-10-24T11:33:13Z</time>
      </trkpt>
      <trkpt lat="43.8029" lon="6.94447">
        <ele>1152.8</ele>
        <time>2009-10-24T11:33:48Z</time>
      </trkpt>
      <trkpt lat="43.8028" lon="6.94454">
        <ele>1145.5</ele>
        <time>2009-10-24T11:34:19Z</time>
      </trkpt>
      <trkpt lat="43.8028" lon="6.94494">
        <ele>1142.2</ele>
        <time>2009-10-24T11:34:32Z</time>
      </trkpt>
      <trkpt lat="43.80286" lon="6.9453">
        <ele>1134</ele>
        <time>2009-10-24T11:34:46Z</time>
      </trkpt>
      <trkpt lat="43.80275" lon="6.94531">
        <ele>1126.8</ele>
        <time>2009-10-24T11:35:07Z</time>
      </trkpt>
      <trkpt lat="43.80272" lon="6.94564">
        <ele>1122.5</ele>
        <time>2009-10-24T11:35:21Z</time>
      </trkpt>
      <trkpt lat="43.80258" lon="6.94598">
        <ele>1119.1</ele>
        <time>2009-10-24T11:35:33Z</time>
      </trkpt>
      <trkpt lat="43.80253" lon="6.94638">
        <ele>1120.1</ele>
        <time>2009-10-24T11:35:52Z</time>
      </trkpt>
      <trkpt lat="43.80256" lon="6.94677">
        <ele>1115.7</ele>
        <time>2009-10-24T11:36:58Z</time>
      </trkpt>
      <trkpt lat="43.80264" lon="6.9471">
        <ele>1110</ele>
        <time>2009-10-24T11:37:12Z</time>
      </trkpt>
      <trkpt lat="43.8027" lon="6.94752">
        <ele>1109.5</ele>
        <time>2009-10-24T11:37:50Z</time>
      </trkpt>
      <trkpt lat="43.8027" lon="6.94792">
        <ele>1104.2</ele>
        <time>2009-10-24T11:38:01Z</time>
      </trkpt>
      <trkpt lat="43.80276" lon="6.9483">
        <ele>1100.8</ele>
        <time>2009-10-24T11:38:35Z</time>
      </trkpt>
      <trkpt lat="43.80287" lon="6.94864">
        <ele>1106.1</ele>
        <time>2009-10-24T11:39:08Z</time>
      </trkpt>
      <trkpt lat="43.80294" lon="6.94901">
        <ele>1111.9</ele>
        <time>2009-10-24T11:39:33Z</time>
      </trkpt>
      <trkpt lat="43.80305" lon="6.94937">
        <ele>1116.2</ele>
        <time>2009-10-24T11:40:09Z</time>
      </trkpt>
      <trkpt lat="43.80321" lon="6.94971">
        <ele>1122</ele>
        <time>2009-10-24T11:41:12Z</time>
      </trkpt>
      <trkpt lat="43.80315" lon="6.9501">
        <ele>1123.9</ele>
        <time>2009-10-24T11:41:39Z</time>
      </trkpt>
      <trkpt lat="43.8032" lon="6.95046">
        <ele>1125.4</ele>
        <time>2009-10-24T11:41:54Z</time>
      </trkpt>
      <trkpt lat="43.80327" lon="6.95085">
        <ele>1124.4</ele>
        <time>2009-10-24T11:42:35Z</time>
      </trkpt>
      <trkpt lat="43.80314" lon="6.95119">
        <ele>1124.9</ele>
        <time>2009-10-24T11:42:51Z</time>
      </trkpt>
      <trkpt lat="43.80292" lon="6.95143">
        <ele>1128.7</ele>
        <time>2009-10-24T11:43:01Z</time>
      </trkpt>
      <trkpt lat="43.80269" lon="6.95171">
        <ele>1128.2</ele>
        <time>2009-10-24T11:44:33Z</time>
      </trkpt>
      <trkpt lat="43.80255" lon="6.95201">
        <ele>1126.8</ele>
        <time>2009-10-24T11:45:14Z</time>
      </trkpt>
      <trkpt lat="43.80275" lon="6.95233">
        <ele>1126.3</ele>
        <time>2009-10-24T11:45:21Z</time>
      </trkpt>
      <trkpt lat="43.80292" lon="6.95265">
        <ele>1126.8</ele>
        <time>2009-10-24T11:45:30Z</time>
      </trkpt>
      <trkpt lat="43.80307" lon="6.95297">
        <ele>1127.3</ele>
        <time>2009-10-24T11:45:40Z</time>
      </trkpt>
      <trkpt lat="43.80311" lon="6.95339">
        <ele>1131.1</ele>
        <time>2009-10-24T11:46:24Z</time>
      </trkpt>
      <trkpt lat="43.8031" lon="6.95386">
        <ele>1134</ele>
        <time>2009-10-24T11:47:29Z</time>
      </trkpt>
      <trkpt lat="43.80317" lon="6.95426">
        <ele>1134.5</ele>
        <time>2009-10-24T11:47:57Z</time>
      </trkpt>
      <trkpt lat="43.80328" lon="6.95461">
        <ele>1135.5</ele>
        <time>2009-10-24T11:48:11Z</time>
      </trkpt>
      <trkpt lat="43.80324" lon="6.95499">
        <ele>1134.5</ele>
        <time>2009-10-24T11:48:26Z</time>
      </trkpt>
      <trkpt lat="43.80325" lon="6.95536">
        <ele>1133.5</ele>
        <time>2009-10-24T11:48:39Z</time>
      </trkpt>
      <trkpt lat="43.80337" lon="6.95577">
        <ele>1131.1</ele>
        <time>2009-10-24T11:48:46Z</time>
      </trkpt>
      <trkpt lat="43.80339" lon="6.95614">
        <ele>1128.2</ele>
        <time>2009-10-24T11:48:54Z</time>
      </trkpt>
      <trkpt lat="43.80323" lon="6.95647">
        <ele>1122</ele>
        <time>2009-10-24T11:49:03Z</time>
      </trkpt>
      <trkpt lat="43.80322" lon="6.95684">
        <ele>1114.8</ele>
        <time>2009-10-24T11:49:13Z</time>
      </trkpt>
      <trkpt lat="43.80332" lon="6.9572">
        <ele>1111.9</ele>
        <time>2009-10-24T11:49:21Z</time>
      </trkpt>
      <trkpt lat="43.80332" lon="6.95753">
        <ele>1110.5</ele>
        <time>2009-10-24T11:49:30Z</time>
      </trkpt>
      <trkpt lat="43.80326" lon="6.95791">
        <ele>1114.3</ele>
        <time>2009-10-24T11:49:42Z</time>
      </trkpt>
      <trkpt lat="43.80325" lon="6.95829">
        <ele>1121.5</ele>
        <time>2009-10-24T11:50:01Z</time>
      </trkpt>
      <trkpt lat="43.80334" lon="6.95865">
        <ele>1123.9</ele>
        <time>2009-10-24T11:50:53Z</time>
      </trkpt>
      <trkpt lat="43.80355" lon="6.95893">
        <ele>1129.2</ele>
        <time>2009-10-24T11:51:19Z</time>
      </trkpt>
      <trkpt lat="43.80369" lon="6.95924">
        <ele>1133.1</ele>
        <time>2009-10-24T11:51:40Z</time>
      </trkpt>
      <trkpt lat="43.80377" lon="6.95955">
        <ele>1135.5</ele>
        <time>2009-10-24T11:51:56Z</time>
      </trkpt>
      <trkpt lat="43.80387" lon="6.95996">
        <ele>1142.2</ele>
        <time>2009-10-24T11:53:14Z</time>
      </trkpt>
      <trkpt lat="43.80391" lon="6.96036">
        <ele>1152.8</ele>
        <time>2009-10-24T11:54:11Z</time>
      </trkpt>
      <trkpt lat="43.8039" lon="6.96071">
        <ele>1151.8</ele>
        <time>2009-10-24T11:54:39Z</time>
      </trkpt>
      <trkpt lat="43.8039" lon="6.96102">
        <ele>1148.9</ele>
        <time>2009-10-24T11:55:10Z</time>
      </trkpt>
      <trkpt lat="43.80391" lon="6.96139">
        <ele>1154.2</ele>
        <time>2009-10-24T11:55:54Z</time>
      </trkpt>
      <trkpt lat="43.80386" lon="6.96178">
        <ele>1157.6</ele>
        <time>2009-10-24T11:56:22Z</time>
      </trkpt>
      <trkpt lat="43.80379" lon="6.96218">
        <ele>1158.5</ele>
        <time>2009-10-24T11:57:13Z</time>
      </trkpt>
      <trkpt lat="43.80372" lon="6.96259">
        <ele>1162.4</ele>
        <time>2009-10-24T11:57:42Z</time>
      </trkpt>
      <trkpt lat="43.80367" lon="6.96298">
        <ele>1166.7</ele>
        <time>2009-10-24T11:58:00Z</time>
      </trkpt>
      <trkpt lat="43.80365" lon="6.96342">
        <ele>1166.7</ele>
        <time>2009-10-24T11:58:56Z</time>
      </trkpt>
      <trkpt lat="43.80368" lon="6.96382">
        <ele>1168.6</ele>
        <time>2009-10-24T11:59:13Z</time>
      </trkpt>
      <trkpt lat="43.80371" lon="6.96421">
        <ele>1168.6</ele>
        <time>2009-10-24T11:59:26Z</time>
      </trkpt>
      <trkpt lat="43.8038" lon="6.96455">
        <ele>1166.2</ele>
        <time>2009-10-24T11:59:38Z</time>
      </trkpt>
      <trkpt lat="43.8039" lon="6.96489">
        <ele>1166.7</ele>
        <time>2009-10-24T11:59:52Z</time>
      </trkpt>
      <trkpt lat="43.80395" lon="6.96526">
        <ele>1166.2</ele>
        <time>2009-10-24T12:00:03Z</time>
      </trkpt>
      <trkpt lat="43.80391" lon="6.96562">
        <ele>1164.8</ele>
        <time>2009-10-24T12:00:13Z</time>
      </trkpt>
      <trkpt lat="43.8039" lon="6.96601">
        <ele>1162.4</ele>
        <time>2009-10-24T12:00:22Z</time>
      </trkpt>
      <trkpt lat="43.80397" lon="6.96642">
        <ele>1160.9</ele>
        <time>2009-10-24T12:00:30Z</time>
      </trkpt>
      <trkpt lat="43.80405" lon="6.9668">
        <ele>1166.2</ele>
        <time>2009-10-24T12:00:38Z</time>
      </trkpt>
      <trkpt lat="43.80403" lon="6.96717">
        <ele>1168.6</ele>
        <time>2009-10-24T12:00:47Z</time>
      </trkpt>
      <trkpt lat="43.80397" lon="6.96753">
        <ele>1168.6</ele>
        <time>2009-10-24T12:00:56Z</time>
      </trkpt>
      <trkpt lat="43.80392" lon="6.96789">
        <ele>1170.5</ele>
        <time>2009-10-24T12:01:12Z</time>
      </trkpt>
      <trkpt lat="43.80383" lon="6.96824">
        <ele>1175.3</ele>
        <time>2009-10-24T12:01:30Z</time>
      </trkpt>
      <trkpt lat="43.80378" lon="6.9686">
        <ele>1185</ele>
        <time>2009-10-24T12:01:46Z</time>
      </trkpt>
      <trkpt lat="43.8037" lon="6.96892">
        <ele>1187.8</ele>
        <time>2009-10-24T12:02:11Z</time>
      </trkpt>
      <trkpt lat="43.80372" lon="6.96929">
        <ele>1181.1</ele>
        <time>2009-10-24T12:03:11Z</time>
      </trkpt>
      <trkpt lat="43.80384" lon="6.96956">
        <ele>1174.4</ele>
        <time>2009-10-24T12:03:27Z</time>
      </trkpt>
      <trkpt lat="43.80376" lon="6.96992">
        <ele>1164.3</ele>
        <time>2009-10-24T12:03:42Z</time>
      </trkpt>
      <trkpt lat="43.80371" lon="6.97031">
        <ele>1157.1</ele>
        <time>2009-10-24T12:03:50Z</time>
      </trkpt>
      <trkpt lat="43.80363" lon="6.97068">
        <ele>1156.6</ele>
        <time>2009-10-24T12:04:00Z</time>
      </trkpt>
      <trkpt lat="43.8036" lon="6.97106">
        <ele>1157.1</ele>
        <time>2009-10-24T12:04:13Z</time>
      </trkpt>
      <trkpt lat="43.80369" lon="6.97138">
        <ele>1152.8</ele>
        <time>2009-10-24T12:04:28Z</time>
      </trkpt>
      <trkpt lat="43.80376" lon="6.9717">
        <ele>1148.9</ele>
        <time>2009-10-24T12:04:53Z</time>
      </trkpt>
      <trkpt lat="43.8038" lon="6.97198">
        <ele>1143.1</ele>
        <time>2009-10-24T12:05:09Z</time>
      </trkpt>
      <trkpt lat="43.80353" lon="6.97203">
        <ele>1135.9</ele>
        <time>2009-10-24T12:05:20Z</time>
      </trkpt>
      <trkpt lat="43.80351" lon="6.97236">
        <ele>1131.6</ele>
        <time>2009-10-24T12:05:28Z</time>
      </trkpt>
      <trkpt lat="43.80355" lon="6.97265">
        <ele>1126.8</ele>
        <time>2009-10-24T12:05:36Z</time>
      </trkpt>
      <trkpt lat="43.80345" lon="6.97305">
        <ele>1122</ele>
        <time>2009-10-24T12:05:43Z</time>
      </trkpt>
      <trkpt lat="43.80359" lon="6.97337">
        <ele>1118.6</ele>
        <time>2009-10-24T12:05:49Z</time>
      </trkpt>
      <trkpt lat="43.80386" lon="6.97347">
        <ele>1115.3</ele>
        <time>2009-10-24T12:05:57Z</time>
      </trkpt>
      <trkpt lat="43.80403" lon="6.97377">
        <ele>1114.8</ele>
        <time>2009-10-24T12:06:07Z</time>
      </trkpt>
      <trkpt lat="43.80397" lon="6.97407">
        <ele>1114.3</ele>
        <time>2009-10-24T12:06:37Z</time>
      </trkpt>
      <trkpt lat="43.80404" lon="6.97443">
        <ele>1113.3</ele>
        <time>2009-10-24T12:06:44Z</time>
      </trkpt>
      <trkpt lat="43.8043" lon="6.97455">
        <ele>1111.4</ele>
        <time>2009-10-24T12:06:49Z</time>
      </trkpt>
      <trkpt lat="43.80457" lon="6.97458">
        <ele>1109</ele>
        <time>2009-10-24T12:06:53Z</time>
      </trkpt>
      <trkpt lat="43.80484" lon="6.97452">
        <ele>1108.5</ele>
        <time>2009-10-24T12:06:58Z</time>
      </trkpt>
      <trkpt lat="43.80503" lon="6.97471">
        <ele>1106.1</ele>
        <time>2009-10-24T12:07:05Z</time>
      </trkpt>
      <trkpt lat="43.80481" lon="6.97486">
        <ele>1102.3</ele>
        <time>2009-10-24T12:07:12Z</time>
      </trkpt>
      <trkpt lat="43.80462" lon="6.97513">
        <ele>1101.3</ele>
        <time>2009-10-24T12:07:18Z</time>
      </trkpt>
      <trkpt lat="43.80448" lon="6.9755">
        <ele>1100.8</ele>
        <time>2009-10-24T12:07:25Z</time>
      </trkpt>
      <trkpt lat="43.80439" lon="6.97588">
        <ele>1101.3</ele>
        <time>2009-10-24T12:07:33Z</time>
      </trkpt>
      <trkpt lat="43.80436" lon="6.97629">
        <ele>1103.7</ele>
        <time>2009-10-24T12:07:41Z</time>
      </trkpt>
      <trkpt lat="43.80447" lon="6.97665">
        <ele>1104.7</ele>
        <time>2009-10-24T12:07:48Z</time>
      </trkpt>
      <trkpt lat="43.80459" lon="6.977">
        <ele>1107.6</ele>
        <time>2009-10-24T12:07:56Z</time>
      </trkpt>
      <trkpt lat="43.80476" lon="6.97736">
        <ele>1103.3</ele>
        <time>2009-10-24T12:08:03Z</time>
      </trkpt>
      <trkpt lat="43.80492" lon="6.97777">
        <ele>1100.8</ele>
        <time>2009-10-24T12:08:08Z</time>
      </trkpt>
      <trkpt lat="43.805" lon="6.97815">
        <ele>1098.9</ele>
        <time>2009-10-24T12:08:13Z</time>
      </trkpt>
      <trkpt lat="43.80515" lon="6.97847">
        <ele>1096.5</ele>
        <time>2009-10-24T12:08:18Z</time>
      </trkpt>
      <trkpt lat="43.80527" lon="6.97884">
        <ele>1095.1</ele>
        <time>2009-10-24T12:08:23Z</time>
      </trkpt>
      <trkpt lat="43.80524" lon="6.97925">
        <ele>1094.6</ele>
        <time>2009-10-24T12:08:29Z</time>
      </trkpt>
      <trkpt lat="43.8052" lon="6.97966">
        <ele>1093.6</ele>
        <time>2009-10-24T12:08:34Z</time>
      </trkpt>
      <trkpt lat="43.80515" lon="6.98006">
        <ele>1093.6</ele>
        <time>2009-10-24T12:08:38Z</time>
      </trkpt>
      <trkpt lat="43.80511" lon="6.98047">
        <ele>1092.7</ele>
        <time>2009-10-24T12:08:42Z</time>
      </trkpt>
      <trkpt lat="43.80515" lon="6.98084">
        <ele>1092.7</ele>
        <time>2009-10-24T12:08:46Z</time>
      </trkpt>
      <trkpt lat="43.80507" lon="6.98121">
        <ele>1089.3</ele>
        <time>2009-10-24T12:08:50Z</time>
      </trkpt>
      <trkpt lat="43.80502" lon="6.98161">
        <ele>1086.4</ele>
        <time>2009-10-24T12:08:55Z</time>
      </trkpt>
      <trkpt lat="43.80494" lon="6.98197">
        <ele>1083.5</ele>
        <time>2009-10-24T12:09:00Z</time>
      </trkpt>
      <trkpt lat="43.80494" lon="6.9824">
        <ele>1084.5</ele>
        <time>2009-10-24T12:09:05Z</time>
      </trkpt>
      <trkpt lat="43.80493" lon="6.98279">
        <ele>1084.5</ele>
        <time>2009-10-24T12:09:10Z</time>
      </trkpt>
      <trkpt lat="43.8049" lon="6.98317">
        <ele>1086.4</ele>
        <time>2009-10-24T12:09:16Z</time>
      </trkpt>
      <trkpt lat="43.80474" lon="6.98348">
        <ele>1086.4</ele>
        <time>2009-10-24T12:09:23Z</time>
      </trkpt>
      <trkpt lat="43.80454" lon="6.98375">
        <ele>1085.5</ele>
        <time>2009-10-24T12:09:29Z</time>
      </trkpt>
      <trkpt lat="43.80434" lon="6.98404">
        <ele>1084</ele>
        <time>2009-10-24T12:09:34Z</time>
      </trkpt>
      <trkpt lat="43.80425" lon="6.98443">
        <ele>1084</ele>
        <time>2009-10-24T12:09:40Z</time>
      </trkpt>
      <trkpt lat="43.80424" lon="6.98482">
        <ele>1083.5</ele>
        <time>2009-10-24T12:09:47Z</time>
      </trkpt>
      <trkpt lat="43.80424" lon="6.9852">
        <ele>1084</ele>
        <time>2009-10-24T12:09:53Z</time>
      </trkpt>
      <trkpt lat="43.80423" lon="6.98557">
        <ele>1082.1</ele>
        <time>2009-10-24T12:09:58Z</time>
      </trkpt>
      <trkpt lat="43.80417" lon="6.98597">
        <ele>1080.2</ele>
        <time>2009-10-24T12:10:03Z</time>
      </trkpt>
      <trkpt lat="43.80409" lon="6.98639">
        <ele>1076.8</ele>
        <time>2009-10-24T12:10:08Z</time>
      </trkpt>
      <trkpt lat="43.80422" lon="6.98678">
        <ele>1080.2</ele>
        <time>2009-10-24T12:10:13Z</time>
      </trkpt>
      <trkpt lat="43.80415" lon="6.98713">
        <ele>1082.6</ele>
        <time>2009-10-24T12:10:20Z</time>
      </trkpt>
      <trkpt lat="43.80405" lon="6.9875">
        <ele>1082.6</ele>
        <time>2009-10-24T12:10:29Z</time>
      </trkpt>
      <trkpt lat="43.80403" lon="6.98787">
        <ele>1085.9</ele>
        <time>2009-10-24T12:10:41Z</time>
      </trkpt>
      <trkpt lat="43.80385" lon="6.98819">
        <ele>1086.9</ele>
        <time>2009-10-24T12:10:51Z</time>
      </trkpt>
      <trkpt lat="43.80371" lon="6.98853">
        <ele>1086.9</ele>
        <time>2009-10-24T12:11:00Z</time>
      </trkpt>
      <trkpt lat="43.80355" lon="6.98885">
        <ele>1087.9</ele>
        <time>2009-10-24T12:11:08Z</time>
      </trkpt>
      <trkpt lat="43.80363" lon="6.98915">
        <ele>1091.7</ele>
        <time>2009-10-24T12:11:20Z</time>
      </trkpt>
      <trkpt lat="43.80388" lon="6.98918">
        <ele>1092.2</ele>
        <time>2009-10-24T12:11:36Z</time>
      </trkpt>
      <trkpt lat="43.804" lon="6.98943">
        <ele>1090.8</ele>
        <time>2009-10-24T12:11:51Z</time>
      </trkpt>
      <trkpt lat="43.80397" lon="6.9898">
        <ele>1092.7</ele>
        <time>2009-10-24T12:12:00Z</time>
      </trkpt>
      <trkpt lat="43.80392" lon="6.99018">
        <ele>1095.1</ele>
        <time>2009-10-24T12:12:09Z</time>
      </trkpt>
      <trkpt lat="43.80381" lon="6.99055">
        <ele>1094.1</ele>
        <time>2009-10-24T12:12:18Z</time>
      </trkpt>
      <trkpt lat="43.80384" lon="6.99096">
        <ele>1090.8</ele>
        <time>2009-10-24T12:12:23Z</time>
      </trkpt>
      <trkpt lat="43.80397" lon="6.99138">
        <ele>1088.8</ele>
        <time>2009-10-24T12:12:28Z</time>
      </trkpt>
      <trkpt lat="43.80405" lon="6.99182">
        <ele>1088.8</ele>
        <time>2009-10-24T12:12:33Z</time>
      </trkpt>
      <trkpt lat="43.80403" lon="6.99226">
        <ele>1085.9</ele>
        <time>2009-10-24T12:12:38Z</time>
      </trkpt>
      <trkpt lat="43.804" lon="6.99268">
        <ele>1086.4</ele>
        <time>2009-10-24T12:12:42Z</time>
      </trkpt>
      <trkpt lat="43.80395" lon="6.99311">
        <ele>1084.5</ele>
        <time>2009-10-24T12:12:46Z</time>
      </trkpt>
      <trkpt lat="43.80396" lon="6.99354">
        <ele>1082.1</ele>
        <time>2009-10-24T12:12:50Z</time>
      </trkpt>
      <trkpt lat="43.80392" lon="6.99399">
        <ele>1079.2</ele>
        <time>2009-10-24T12:12:54Z</time>
      </trkpt>
      <trkpt lat="43.80389" lon="6.99437">
        <ele>1079.2</ele>
        <time>2009-10-24T12:12:58Z</time>
      </trkpt>
      <trkpt lat="43.80381" lon="6.99477">
        <ele>1081.1</ele>
        <time>2009-10-24T12:13:04Z</time>
      </trkpt>
      <trkpt lat="43.80369" lon="6.9951">
        <ele>1083.5</ele>
        <time>2009-10-24T12:13:11Z</time>
      </trkpt>
      <trkpt lat="43.80349" lon="6.99542">
        <ele>1081.6</ele>
        <time>2009-10-24T12:13:17Z</time>
      </trkpt>
      <trkpt lat="43.80342" lon="6.9958">
        <ele>1083.5</ele>
        <time>2009-10-24T12:13:22Z</time>
      </trkpt>
      <trkpt lat="43.80338" lon="6.99621">
        <ele>1085.9</ele>
        <time>2009-10-24T12:13:30Z</time>
      </trkpt>
      <trkpt lat="43.80332" lon="6.9966">
        <ele>1084</ele>
        <time>2009-10-24T12:13:38Z</time>
      </trkpt>
      <trkpt lat="43.80327" lon="6.99698">
        <ele>1082.6</ele>
        <time>2009-10-24T12:16:03Z</time>
      </trkpt>
      <trkpt lat="43.80319" lon="6.99744">
        <ele>1078.7</ele>
        <time>2009-10-24T12:16:11Z</time>
      </trkpt>
      <trkpt lat="43.8031" lon="6.99785">
        <ele>1074.9</ele>
        <time>2009-10-24T12:16:17Z</time>
      </trkpt>
      <trkpt lat="43.80318" lon="6.99819">
        <ele>1071</ele>
        <time>2009-10-24T12:16:25Z</time>
      </trkpt>
      <trkpt lat="43.8034" lon="6.99849">
        <ele>1065.3</ele>
        <time>2009-10-24T12:17:17Z</time>
      </trkpt>
      <trkpt lat="43.80337" lon="6.99885">
        <ele>1068.6</ele>
        <time>2009-10-24T12:18:05Z</time>
      </trkpt>
      <trkpt lat="43.80313" lon="6.99909">
        <ele>1069.6</ele>
        <time>2009-10-24T12:18:27Z</time>
      </trkpt>
      <trkpt lat="43.80294" lon="6.99936">
        <ele>1068.6</ele>
        <time>2009-10-24T12:18:35Z</time>
      </trkpt>
      <trkpt lat="43.80282" lon="6.99971">
        <ele>1068.6</ele>
        <time>2009-10-24T12:18:46Z</time>
      </trkpt>
      <trkpt lat="43.80264" lon="6.99999">
        <ele>1067.7</ele>
        <time>2009-10-24T12:18:56Z</time>
      </trkpt>
      <trkpt lat="43.80247" lon="7.00033">
        <ele>1065.3</ele>
        <time>2009-10-24T12:19:04Z</time>
      </trkpt>
      <trkpt lat="43.80246" lon="7.00073">
        <ele>1060.5</ele>
        <time>2009-10-24T12:19:13Z</time>
      </trkpt>
      <trkpt lat="43.80256" lon="7.00114">
        <ele>1059</ele>
        <time>2009-10-24T12:19:19Z</time>
      </trkpt>
      <trkpt lat="43.8026" lon="7.00159">
        <ele>1057.1</ele>
        <time>2009-10-24T12:19:25Z</time>
      </trkpt>
      <trkpt lat="43.80242" lon="7.00191">
        <ele>1054.2</ele>
        <time>2009-10-24T12:19:31Z</time>
      </trkpt>
      <trkpt lat="43.80232" lon="7.00215">
        <ele>1050.9</ele>
        <time>2009-10-24T12:19:38Z</time>
      </trkpt>
      <trkpt lat="43.80256" lon="7.00241">
        <ele>1055.7</ele>
        <time>2009-10-24T12:19:52Z</time>
      </trkpt>
      <trkpt lat="43.80258" lon="7.00278">
        <ele>1055.2</ele>
        <time>2009-10-24T12:20:01Z</time>
      </trkpt>
      <trkpt lat="43.80251" lon="7.00317">
        <ele>1053.3</ele>
        <time>2009-10-24T12:20:12Z</time>
      </trkpt>
      <trkpt lat="43.80262" lon="7.00354">
        <ele>1051.8</ele>
        <time>2009-10-24T12:20:20Z</time>
      </trkpt>
      <trkpt lat="43.80264" lon="7.00396">
        <ele>1049.4</ele>
        <time>2009-10-24T12:20:29Z</time>
      </trkpt>
      <trkpt lat="43.80252" lon="7.00429">
        <ele>1049.9</ele>
        <time>2009-10-24T12:20:36Z</time>
      </trkpt>
      <trkpt lat="43.80235" lon="7.0046">
        <ele>1049.4</ele>
        <time>2009-10-24T12:20:44Z</time>
      </trkpt>
      <trkpt lat="43.80218" lon="7.00491">
        <ele>1051.8</ele>
        <time>2009-10-24T12:20:55Z</time>
      </trkpt>
      <trkpt lat="43.80211" lon="7.00528">
        <ele>1057.1</ele>
        <time>2009-10-24T12:21:12Z</time>
      </trkpt>
      <trkpt lat="43.80213" lon="7.00566">
        <ele>1059.5</ele>
        <time>2009-10-24T12:21:30Z</time>
      </trkpt>
      <trkpt lat="43.80206" lon="7.00606">
        <ele>1061.9</ele>
        <time>2009-10-24T12:21:47Z</time>
      </trkpt>
      <trkpt lat="43.802" lon="7.00644">
        <ele>1064.3</ele>
        <time>2009-10-24T12:22:02Z</time>
      </trkpt>
      <trkpt lat="43.80195" lon="7.00687">
        <ele>1070.1</ele>
        <time>2009-10-24T12:22:21Z</time>
      </trkpt>
      <trkpt lat="43.80191" lon="7.00725">
        <ele>1070.1</ele>
        <time>2009-10-24T12:22:34Z</time>
      </trkpt>
      <trkpt lat="43.80198" lon="7.00764">
        <ele>1074.9</ele>
        <time>2009-10-24T12:22:53Z</time>
      </trkpt>
      <trkpt lat="43.80207" lon="7.00798">
        <ele>1081.1</ele>
        <time>2009-10-24T12:23:15Z</time>
      </trkpt>
      <trkpt lat="43.80224" lon="7.00806">
        <ele>1087.9</ele>
        <time>2009-10-24T12:23:38Z</time>
      </trkpt>
      <trkpt lat="43.80237" lon="7.00838">
        <ele>1089.8</ele>
        <time>2009-10-24T12:23:59Z</time>
      </trkpt>
      <trkpt lat="43.80249" lon="7.00867">
        <ele>1095.1</ele>
        <time>2009-10-24T12:24:22Z</time>
      </trkpt>
      <trkpt lat="43.80252" lon="7.00869">
        <ele>1098</ele>
        <time>2009-10-24T12:25:34Z</time>
      </trkpt>
      <trkpt lat="43.8022" lon="7.00862">
        <ele>1092.7</ele>
        <time>2009-10-24T12:25:47Z</time>
      </trkpt>
      <trkpt lat="43.80217" lon="7.00898">
        <ele>1089.8</ele>
        <time>2009-10-24T12:26:00Z</time>
      </trkpt>
      <trkpt lat="43.80227" lon="7.00939">
        <ele>1088.8</ele>
        <time>2009-10-24T12:26:34Z</time>
      </trkpt>
      <trkpt lat="43.80226" lon="7.00986">
        <ele>1095.6</ele>
        <time>2009-10-24T12:27:15Z</time>
      </trkpt>
      <trkpt lat="43.80244" lon="7.01062">
        <ele>1110.5</ele>
        <time>2009-10-24T12:29:23Z</time>
      </trkpt>
      <trkpt lat="43.80259" lon="7.01095">
        <ele>1115.3</ele>
        <time>2009-10-24T12:29:58Z</time>
      </trkpt>
      <trkpt lat="43.80262" lon="7.01136">
        <ele>1122.5</ele>
        <time>2009-10-24T12:30:45Z</time>
      </trkpt>
      <trkpt lat="43.80278" lon="7.01181">
        <ele>1131.1</ele>
        <time>2009-10-24T12:31:42Z</time>
      </trkpt>
      <trkpt lat="43.80294" lon="7.01212">
        <ele>1136.4</ele>
        <time>2009-10-24T12:32:18Z</time>
      </trkpt>
      <trkpt lat="43.80308" lon="7.01248">
        <ele>1141.7</ele>
        <time>2009-10-24T12:32:54Z</time>
      </trkpt>
      <trkpt lat="43.80285" lon="7.01276">
        <ele>1145.5</ele>
        <time>2009-10-24T12:33:32Z</time>
      </trkpt>
      <trkpt lat="43.80269" lon="7.01304">
        <ele>1151.3</ele>
        <time>2009-10-24T12:34:01Z</time>
      </trkpt>
      <trkpt lat="43.80262" lon="7.0134">
        <ele>1157.6</ele>
        <time>2009-10-24T12:34:35Z</time>
      </trkpt>
      <trkpt lat="43.80265" lon="7.0138">
        <ele>1163.8</ele>
        <time>2009-10-24T12:35:08Z</time>
      </trkpt>
      <trkpt lat="43.80275" lon="7.01416">
        <ele>1165.7</ele>
        <time>2009-10-24T12:35:38Z</time>
      </trkpt>
      <trkpt lat="43.80278" lon="7.01454">
        <ele>1163.8</ele>
        <time>2009-10-24T12:36:04Z</time>
      </trkpt>
      <trkpt lat="43.8029" lon="7.01481">
        <ele>1172</ele>
        <time>2009-10-24T12:36:34Z</time>
      </trkpt>
      <trkpt lat="43.80308" lon="7.01503">
        <ele>1177.8</ele>
        <time>2009-10-24T12:37:03Z</time>
      </trkpt>
      <trkpt lat="43.80299" lon="7.01539">
        <ele>1178.7</ele>
        <time>2009-10-24T12:37:28Z</time>
      </trkpt>
      <trkpt lat="43.80291" lon="7.01575">
        <ele>1182.6</ele>
        <time>2009-10-24T12:38:12Z</time>
      </trkpt>
      <trkpt lat="43.80292" lon="7.01614">
        <ele>1187.4</ele>
        <time>2009-10-24T12:38:33Z</time>
      </trkpt>
      <trkpt lat="43.80283" lon="7.0165">
        <ele>1189.8</ele>
        <time>2009-10-24T12:38:50Z</time>
      </trkpt>
      <trkpt lat="43.80269" lon="7.01684">
        <ele>1192.7</ele>
        <time>2009-10-24T12:39:08Z</time>
      </trkpt>
      <trkpt lat="43.80247" lon="7.01702">
        <ele>1197</ele>
        <time>2009-10-24T12:39:25Z</time>
      </trkpt>
      <trkpt lat="43.80242" lon="7.01737">
        <ele>1201.3</ele>
        <time>2009-10-24T12:39:43Z</time>
      </trkpt>
      <trkpt lat="43.80243" lon="7.01777">
        <ele>1202.3</ele>
        <time>2009-10-24T12:39:59Z</time>
      </trkpt>
      <trkpt lat="43.80271" lon="7.01792">
        <ele>1200.8</ele>
        <time>2009-10-24T12:40:09Z</time>
      </trkpt>
      <trkpt lat="43.80298" lon="7.01806">
        <ele>1200.3</ele>
        <time>2009-10-24T12:40:16Z</time>
      </trkpt>
      <trkpt lat="43.80313" lon="7.01836">
        <ele>1201.3</ele>
        <time>2009-10-24T12:40:23Z</time>
      </trkpt>
      <trkpt lat="43.80321" lon="7.01873">
        <ele>1203.2</ele>
        <time>2009-10-24T12:40:33Z</time>
      </trkpt>
      <trkpt lat="43.8033" lon="7.0191">
        <ele>1203.2</ele>
        <time>2009-10-24T12:40:43Z</time>
      </trkpt>
      <trkpt lat="43.80331" lon="7.01952">
        <ele>1203.2</ele>
        <time>2009-10-24T12:40:50Z</time>
      </trkpt>
      <trkpt lat="43.80331" lon="7.01989">
        <ele>1203.2</ele>
        <time>2009-10-24T12:41:00Z</time>
      </trkpt>
      <trkpt lat="43.80329" lon="7.02032">
        <ele>1200.8</ele>
        <time>2009-10-24T12:41:08Z</time>
      </trkpt>
      <trkpt lat="43.8033" lon="7.02076">
        <ele>1197.9</ele>
        <time>2009-10-24T12:41:15Z</time>
      </trkpt>
      <trkpt lat="43.80333" lon="7.02119">
        <ele>1198.4</ele>
        <time>2009-10-24T12:41:21Z</time>
      </trkpt>
      <trkpt lat="43.8033" lon="7.02158">
        <ele>1195.5</ele>
        <time>2009-10-24T12:41:26Z</time>
      </trkpt>
      <trkpt lat="43.80328" lon="7.02203">
        <ele>1195.1</ele>
        <time>2009-10-24T12:41:31Z</time>
      </trkpt>
      <trkpt lat="43.80327" lon="7.02244">
        <ele>1194.6</ele>
        <time>2009-10-24T12:41:36Z</time>
      </trkpt>
      <trkpt lat="43.8032" lon="7.02286">
        <ele>1191.7</ele>
        <time>2009-10-24T12:41:41Z</time>
      </trkpt>
      <trkpt lat="43.8031" lon="7.0233">
        <ele>1187.4</ele>
        <time>2009-10-24T12:41:46Z</time>
      </trkpt>
      <trkpt lat="43.8031" lon="7.02378">
        <ele>1185.4</ele>
        <time>2009-10-24T12:41:51Z</time>
      </trkpt>
      <trkpt lat="43.80316" lon="7.02418">
        <ele>1187.4</ele>
        <time>2009-10-24T12:41:56Z</time>
      </trkpt>
      <trkpt lat="43.80326" lon="7.02455">
        <ele>1186.9</ele>
        <time>2009-10-24T12:42:07Z</time>
      </trkpt>
      <trkpt lat="43.80328" lon="7.02498">
        <ele>1183.5</ele>
        <time>2009-10-24T12:42:14Z</time>
      </trkpt>
      <trkpt lat="43.80329" lon="7.02537">
        <ele>1183.5</ele>
        <time>2009-10-24T12:43:25Z</time>
      </trkpt>
      <trkpt lat="43.8033" lon="7.0258">
        <ele>1183.5</ele>
        <time>2009-10-24T12:43:34Z</time>
      </trkpt>
      <trkpt lat="43.80318" lon="7.02616">
        <ele>1180.6</ele>
        <time>2009-10-24T12:43:40Z</time>
      </trkpt>
      <trkpt lat="43.80311" lon="7.02655">
        <ele>1177.3</ele>
        <time>2009-10-24T12:43:44Z</time>
      </trkpt>
      <trkpt lat="43.80302" lon="7.02701">
        <ele>1174.4</ele>
        <time>2009-10-24T12:43:48Z</time>
      </trkpt>
      <trkpt lat="43.80282" lon="7.0274">
        <ele>1170.5</ele>
        <time>2009-10-24T12:43:52Z</time>
      </trkpt>
      <trkpt lat="43.80268" lon="7.02779">
        <ele>1168.1</ele>
        <time>2009-10-24T12:43:56Z</time>
      </trkpt>
      <trkpt lat="43.80243" lon="7.02796">
        <ele>1163.3</ele>
        <time>2009-10-24T12:44:06Z</time>
      </trkpt>
      <trkpt lat="43.80231" lon="7.02783">
        <ele>1158.5</ele>
        <time>2009-10-24T12:44:14Z</time>
      </trkpt>
      <trkpt lat="43.80243" lon="7.02747">
        <ele>1157.1</ele>
        <time>2009-10-24T12:44:20Z</time>
      </trkpt>
      <trkpt lat="43.80248" lon="7.02703">
        <ele>1152.8</ele>
        <time>2009-10-24T12:44:24Z</time>
      </trkpt>
      <trkpt lat="43.80249" lon="7.02665">
        <ele>1148.9</ele>
        <time>2009-10-24T12:44:28Z</time>
      </trkpt>
      <trkpt lat="43.80239" lon="7.02657">
        <ele>1147.5</ele>
        <time>2009-10-24T12:44:36Z</time>
      </trkpt>
      <trkpt lat="43.80228" lon="7.02694">
        <ele>1144.1</ele>
        <time>2009-10-24T12:44:42Z</time>
      </trkpt>
      <trkpt lat="43.80211" lon="7.02731">
        <ele>1143.6</ele>
        <time>2009-10-24T12:44:48Z</time>
      </trkpt>
      <trkpt lat="43.80188" lon="7.02759">
        <ele>1139.3</ele>
        <time>2009-10-24T12:44:53Z</time>
      </trkpt>
      <trkpt lat="43.80167" lon="7.02789">
        <ele>1135</ele>
        <time>2009-10-24T12:44:57Z</time>
      </trkpt>
      <trkpt lat="43.80155" lon="7.02829">
        <ele>1130.6</ele>
        <time>2009-10-24T12:45:01Z</time>
      </trkpt>
      <trkpt lat="43.80143" lon="7.02867">
        <ele>1128.7</ele>
        <time>2009-10-24T12:45:05Z</time>
      </trkpt>
      <trkpt lat="43.80138" lon="7.02906">
        <ele>1124.9</ele>
        <time>2009-10-24T12:45:09Z</time>
      </trkpt>
      <trkpt lat="43.80139" lon="7.02951">
        <ele>1121.5</ele>
        <time>2009-10-24T12:45:13Z</time>
      </trkpt>
      <trkpt lat="43.80139" lon="7.02987">
        <ele>1119.6</ele>
        <time>2009-10-24T12:45:17Z</time>
      </trkpt>
      <trkpt lat="43.8012" lon="7.02999">
        <ele>1115.3</ele>
        <time>2009-10-24T12:45:24Z</time>
      </trkpt>
      <trkpt lat="43.80116" lon="7.0296">
        <ele>1113.8</ele>
        <time>2009-10-24T12:45:29Z</time>
      </trkpt>
      <trkpt lat="43.801" lon="7.0292">
        <ele>1111.9</ele>
        <time>2009-10-24T12:45:34Z</time>
      </trkpt>
      <trkpt lat="43.80085" lon="7.02905">
        <ele>1108.5</ele>
        <time>2009-10-24T12:45:41Z</time>
      </trkpt>
      <trkpt lat="43.80083" lon="7.02946">
        <ele>1104.2</ele>
        <time>2009-10-24T12:45:53Z</time>
      </trkpt>
      <trkpt lat="43.80076" lon="7.02986">
        <ele>1103.3</ele>
        <time>2009-10-24T12:46:00Z</time>
      </trkpt>
      <trkpt lat="43.80068" lon="7.03027">
        <ele>1099.9</ele>
        <time>2009-10-24T12:46:05Z</time>
      </trkpt>
      <trkpt lat="43.80054" lon="7.03064">
        <ele>1095.6</ele>
        <time>2009-10-24T12:46:09Z</time>
      </trkpt>
      <trkpt lat="43.80035" lon="7.03104">
        <ele>1094.1</ele>
        <time>2009-10-24T12:46:13Z</time>
      </trkpt>
      <trkpt lat="43.80024" lon="7.03144">
        <ele>1092.2</ele>
        <time>2009-10-24T12:46:17Z</time>
      </trkpt>
      <trkpt lat="43.80009" lon="7.03179">
        <ele>1089.8</ele>
        <time>2009-10-24T12:46:21Z</time>
      </trkpt>
      <trkpt lat="43.79991" lon="7.03211">
        <ele>1086.9</ele>
        <time>2009-10-24T12:46:25Z</time>
      </trkpt>
      <trkpt lat="43.79967" lon="7.0324">
        <ele>1082.1</ele>
        <time>2009-10-24T12:46:29Z</time>
      </trkpt>
      <trkpt lat="43.79941" lon="7.03276">
        <ele>1078.3</ele>
        <time>2009-10-24T12:46:33Z</time>
      </trkpt>
      <trkpt lat="43.79922" lon="7.0331">
        <ele>1075.9</ele>
        <time>2009-10-24T12:46:36Z</time>
      </trkpt>
      <trkpt lat="43.79899" lon="7.03345">
        <ele>1072.5</ele>
        <time>2009-10-24T12:46:39Z</time>
      </trkpt>
      <trkpt lat="43.79879" lon="7.03378">
        <ele>1069.6</ele>
        <time>2009-10-24T12:46:42Z</time>
      </trkpt>
      <trkpt lat="43.79862" lon="7.03411">
        <ele>1066.2</ele>
        <time>2009-10-24T12:46:45Z</time>
      </trkpt>
      <trkpt lat="43.79851" lon="7.03448">
        <ele>1064.3</ele>
        <time>2009-10-24T12:46:49Z</time>
      </trkpt>
      <trkpt lat="43.79841" lon="7.03485">
        <ele>1061</ele>
        <time>2009-10-24T12:46:53Z</time>
      </trkpt>
      <trkpt lat="43.79836" lon="7.03476">
        <ele>1055.7</ele>
        <time>2009-10-24T12:47:02Z</time>
      </trkpt>
      <trkpt lat="43.79819" lon="7.03501">
        <ele>1049.9</ele>
        <time>2009-10-24T12:47:10Z</time>
      </trkpt>
      <trkpt lat="43.79798" lon="7.03539">
        <ele>1047</ele>
        <time>2009-10-24T12:47:15Z</time>
      </trkpt>
      <trkpt lat="43.79781" lon="7.03572">
        <ele>1043.6</ele>
        <time>2009-10-24T12:47:19Z</time>
      </trkpt>
      <trkpt lat="43.79764" lon="7.03609">
        <ele>1041.2</ele>
        <time>2009-10-24T12:47:23Z</time>
      </trkpt>
      <trkpt lat="43.79738" lon="7.03631">
        <ele>1040.3</ele>
        <time>2009-10-24T12:47:29Z</time>
      </trkpt>
      <trkpt lat="43.79713" lon="7.0365">
        <ele>1038.4</ele>
        <time>2009-10-24T12:47:34Z</time>
      </trkpt>
      <trkpt lat="43.79696" lon="7.03678">
        <ele>1034.5</ele>
        <time>2009-10-24T12:47:40Z</time>
      </trkpt>
      <trkpt lat="43.79688" lon="7.03643">
        <ele>1026.8</ele>
        <time>2009-10-24T12:47:47Z</time>
      </trkpt>
      <trkpt lat="43.79674" lon="7.03633">
        <ele>1024.4</ele>
        <time>2009-10-24T12:47:56Z</time>
      </trkpt>
      <trkpt lat="43.79649" lon="7.03659">
        <ele>1020.1</ele>
        <time>2009-10-24T12:48:04Z</time>
      </trkpt>
      <trkpt lat="43.79645" lon="7.03696">
        <ele>1018.2</ele>
        <time>2009-10-24T12:48:20Z</time>
      </trkpt>
      <trkpt lat="43.79648" lon="7.03656">
        <ele>1014.8</ele>
        <time>2009-10-24T12:50:05Z</time>
      </trkpt>
      <trkpt lat="43.79652" lon="7.03615">
        <ele>1010.5</ele>
        <time>2009-10-24T12:50:11Z</time>
      </trkpt>
      <trkpt lat="43.79656" lon="7.03576">
        <ele>1006.6</ele>
        <time>2009-10-24T12:50:17Z</time>
      </trkpt>
      <trkpt lat="43.79666" lon="7.03541">
        <ele>1004.2</ele>
        <time>2009-10-24T12:50:22Z</time>
      </trkpt>
      <trkpt lat="43.79673" lon="7.03501">
        <ele>1005.2</ele>
        <time>2009-10-24T12:50:28Z</time>
      </trkpt>
      <trkpt lat="43.79646" lon="7.03514">
        <ele>1004.2</ele>
        <time>2009-10-24T12:50:33Z</time>
      </trkpt>
      <trkpt lat="43.79627" lon="7.03543">
        <ele>1002.8</ele>
        <time>2009-10-24T12:50:37Z</time>
      </trkpt>
      <trkpt lat="43.79605" lon="7.0357">
        <ele>1000.9</ele>
        <time>2009-10-24T12:50:41Z</time>
      </trkpt>
      <trkpt lat="43.79581" lon="7.03592">
        <ele>999.9</ele>
        <time>2009-10-24T12:50:45Z</time>
      </trkpt>
      <trkpt lat="43.79554" lon="7.03575">
        <ele>997</ele>
        <time>2009-10-24T12:50:50Z</time>
      </trkpt>
      <trkpt lat="43.79546" lon="7.03537">
        <ele>992.2</ele>
        <time>2009-10-24T12:50:53Z</time>
      </trkpt>
      <trkpt lat="43.79553" lon="7.03497">
        <ele>987.4</ele>
        <time>2009-10-24T12:50:56Z</time>
      </trkpt>
      <trkpt lat="43.7958" lon="7.03465">
        <ele>984</ele>
        <time>2009-10-24T12:50:59Z</time>
      </trkpt>
      <trkpt lat="43.79602" lon="7.03428">
        <ele>980.7</ele>
        <time>2009-10-24T12:51:02Z</time>
      </trkpt>
      <trkpt lat="43.79612" lon="7.03385">
        <ele>976.8</ele>
        <time>2009-10-24T12:51:05Z</time>
      </trkpt>
      <trkpt lat="43.7961" lon="7.03339">
        <ele>975.4</ele>
        <time>2009-10-24T12:51:08Z</time>
      </trkpt>
      <trkpt lat="43.79598" lon="7.03295">
        <ele>974</ele>
        <time>2009-10-24T12:51:11Z</time>
      </trkpt>
      <trkpt lat="43.79575" lon="7.0327">
        <ele>973.5</ele>
        <time>2009-10-24T12:51:14Z</time>
      </trkpt>
      <trkpt lat="43.79547" lon="7.03282">
        <ele>974</ele>
        <time>2009-10-24T12:51:18Z</time>
      </trkpt>
      <trkpt lat="43.79524" lon="7.03308">
        <ele>974.4</ele>
        <time>2009-10-24T12:51:23Z</time>
      </trkpt>
      <trkpt lat="43.79505" lon="7.03337">
        <ele>974</ele>
        <time>2009-10-24T12:51:28Z</time>
      </trkpt>
      <trkpt lat="43.79483" lon="7.03361">
        <ele>972.5</ele>
        <time>2009-10-24T12:51:32Z</time>
      </trkpt>
      <trkpt lat="43.79456" lon="7.03382">
        <ele>971.5</ele>
        <time>2009-10-24T12:51:36Z</time>
      </trkpt>
      <trkpt lat="43.79421" lon="7.03391">
        <ele>970.1</ele>
        <time>2009-10-24T12:51:40Z</time>
      </trkpt>
      <trkpt lat="43.79391" lon="7.03395">
        <ele>968.2</ele>
        <time>2009-10-24T12:51:43Z</time>
      </trkpt>
      <trkpt lat="43.79364" lon="7.03404">
        <ele>963.4</ele>
        <time>2009-10-24T12:51:46Z</time>
      </trkpt>
      <trkpt lat="43.79353" lon="7.03441">
        <ele>960.5</ele>
        <time>2009-10-24T12:51:49Z</time>
      </trkpt>
      <trkpt lat="43.79345" lon="7.03485">
        <ele>958.6</ele>
        <time>2009-10-24T12:51:52Z</time>
      </trkpt>
      <trkpt lat="43.79348" lon="7.03521">
        <ele>954.2</ele>
        <time>2009-10-24T12:51:56Z</time>
      </trkpt>
      <trkpt lat="43.79373" lon="7.03541">
        <ele>950.9</ele>
        <time>2009-10-24T12:52:00Z</time>
      </trkpt>
      <trkpt lat="43.7936" lon="7.03582">
        <ele>950.4</ele>
        <time>2009-10-24T12:52:05Z</time>
      </trkpt>
      <trkpt lat="43.79345" lon="7.03622">
        <ele>951.8</ele>
        <time>2009-10-24T12:52:10Z</time>
      </trkpt>
      <trkpt lat="43.7934" lon="7.03665">
        <ele>952.8</ele>
        <time>2009-10-24T12:52:16Z</time>
      </trkpt>
      <trkpt lat="43.7933" lon="7.03705">
        <ele>954.2</ele>
        <time>2009-10-24T12:52:24Z</time>
      </trkpt>
      <trkpt lat="43.79305" lon="7.03689">
        <ele>958.6</ele>
        <time>2009-10-24T12:52:34Z</time>
      </trkpt>
      <trkpt lat="43.79302" lon="7.03706">
        <ele>960</ele>
        <time>2009-10-24T12:52:50Z</time>
      </trkpt>
      <trkpt lat="43.79319" lon="7.03736">
        <ele>961</ele>
        <time>2009-10-24T12:53:02Z</time>
      </trkpt>
      <trkpt lat="43.79332" lon="7.03772">
        <ele>964.8</ele>
        <time>2009-10-24T12:53:11Z</time>
      </trkpt>
      <trkpt lat="43.79356" lon="7.03793">
        <ele>966.7</ele>
        <time>2009-10-24T12:53:21Z</time>
      </trkpt>
      <trkpt lat="43.79376" lon="7.03821">
        <ele>969.6</ele>
        <time>2009-10-24T12:53:32Z</time>
      </trkpt>
      <trkpt lat="43.79371" lon="7.03863">
        <ele>971.5</ele>
        <time>2009-10-24T12:53:44Z</time>
      </trkpt>
      <trkpt lat="43.79365" lon="7.03906">
        <ele>973.5</ele>
        <time>2009-10-24T12:53:56Z</time>
      </trkpt>
      <trkpt lat="43.79359" lon="7.03948">
        <ele>974</ele>
        <time>2009-10-24T12:54:07Z</time>
      </trkpt>
      <trkpt lat="43.79351" lon="7.03994">
        <ele>976.4</ele>
        <time>2009-10-24T12:54:19Z</time>
      </trkpt>
      <trkpt lat="43.79345" lon="7.04038">
        <ele>978.8</ele>
        <time>2009-10-24T12:54:30Z</time>
      </trkpt>
      <trkpt lat="43.79335" lon="7.04078">
        <ele>980.2</ele>
        <time>2009-10-24T12:54:40Z</time>
      </trkpt>
      <trkpt lat="43.79321" lon="7.04115">
        <ele>983.6</ele>
        <time>2009-10-24T12:54:51Z</time>
      </trkpt>
      <trkpt lat="43.79321" lon="7.04144">
        <ele>988.4</ele>
        <time>2009-10-24T12:55:03Z</time>
      </trkpt>
      <trkpt lat="43.7932" lon="7.04143">
        <ele>988.4</ele>
        <time>2009-10-24T12:55:19Z</time>
      </trkpt>
      <trkpt lat="43.79308" lon="7.0418">
        <ele>990.3</ele>
        <time>2009-10-24T12:55:36Z</time>
      </trkpt>
      <trkpt lat="43.79302" lon="7.04221">
        <ele>993.2</ele>
        <time>2009-10-24T12:55:46Z</time>
      </trkpt>
      <trkpt lat="43.79296" lon="7.04263">
        <ele>994.1</ele>
        <time>2009-10-24T12:55:56Z</time>
      </trkpt>
      <trkpt lat="43.7929" lon="7.04302">
        <ele>995.1</ele>
        <time>2009-10-24T12:56:05Z</time>
      </trkpt>
      <trkpt lat="43.79283" lon="7.04345">
        <ele>994.1</ele>
        <time>2009-10-24T12:56:14Z</time>
      </trkpt>
      <trkpt lat="43.79277" lon="7.04385">
        <ele>993.2</ele>
        <time>2009-10-24T12:56:22Z</time>
      </trkpt>
      <trkpt lat="43.79271" lon="7.04428">
        <ele>993.7</ele>
        <time>2009-10-24T12:56:31Z</time>
      </trkpt>
      <trkpt lat="43.79263" lon="7.04468">
        <ele>994.6</ele>
        <time>2009-10-24T12:56:39Z</time>
      </trkpt>
      <trkpt lat="43.79267" lon="7.045">
        <ele>998.5</ele>
        <time>2009-10-24T12:56:48Z</time>
      </trkpt>
      <trkpt lat="43.79283" lon="7.04463">
        <ele>1007.1</ele>
        <time>2009-10-24T12:57:00Z</time>
      </trkpt>
      <trkpt lat="43.793" lon="7.04429">
        <ele>1008.6</ele>
        <time>2009-10-24T12:57:11Z</time>
      </trkpt>
      <trkpt lat="43.79316" lon="7.04397">
        <ele>1010.5</ele>
        <time>2009-10-24T12:57:23Z</time>
      </trkpt>
      <trkpt lat="43.79332" lon="7.04363">
        <ele>1012.4</ele>
        <time>2009-10-24T12:57:47Z</time>
      </trkpt>
      <trkpt lat="43.79344" lon="7.04329">
        <ele>1016.3</ele>
        <time>2009-10-24T12:58:05Z</time>
      </trkpt>
      <trkpt lat="43.79358" lon="7.04296">
        <ele>1017.7</ele>
        <time>2009-10-24T12:58:21Z</time>
      </trkpt>
      <trkpt lat="43.79378" lon="7.0427">
        <ele>1023</ele>
        <time>2009-10-24T12:58:37Z</time>
      </trkpt>
      <trkpt lat="43.79402" lon="7.04244">
        <ele>1024.4</ele>
        <time>2009-10-24T12:58:53Z</time>
      </trkpt>
      <trkpt lat="43.79424" lon="7.04216">
        <ele>1025.4</ele>
        <time>2009-10-24T12:59:08Z</time>
      </trkpt>
      <trkpt lat="43.7945" lon="7.04187">
        <ele>1026.8</ele>
        <time>2009-10-24T12:59:23Z</time>
      </trkpt>
      <trkpt lat="43.79445" lon="7.04143">
        <ele>1046.1</ele>
        <time>2009-10-24T13:31:52Z</time>
      </trkpt>
      <trkpt lat="43.79458" lon="7.04103">
        <ele>1035</ele>
        <time>2009-10-24T13:32:02Z</time>
      </trkpt>
      <trkpt lat="43.79472" lon="7.04065">
        <ele>1029.7</ele>
        <time>2009-10-24T13:32:09Z</time>
      </trkpt>
      <trkpt lat="43.79471" lon="7.04026">
        <ele>1029.2</ele>
        <time>2009-10-24T13:32:16Z</time>
      </trkpt>
      <trkpt lat="43.7949" lon="7.04037">
        <ele>1031.2</ele>
        <time>2009-10-24T13:32:29Z</time>
      </trkpt>
      <trkpt lat="43.79493" lon="7.04074">
        <ele>1033.1</ele>
        <time>2009-10-24T13:32:43Z</time>
      </trkpt>
      <trkpt lat="43.79502" lon="7.04112">
        <ele>1036</ele>
        <time>2009-10-24T13:32:56Z</time>
      </trkpt>
      <trkpt lat="43.79508" lon="7.0415">
        <ele>1039.8</ele>
        <time>2009-10-24T13:33:07Z</time>
      </trkpt>
      <trkpt lat="43.79525" lon="7.04184">
        <ele>1040.8</ele>
        <time>2009-10-24T13:33:18Z</time>
      </trkpt>
      <trkpt lat="43.79527" lon="7.0422">
        <ele>1042.7</ele>
        <time>2009-10-24T13:33:27Z</time>
      </trkpt>
      <trkpt lat="43.79496" lon="7.04235">
        <ele>1045.1</ele>
        <time>2009-10-24T13:33:35Z</time>
      </trkpt>
      <trkpt lat="43.79467" lon="7.04254">
        <ele>1046.5</ele>
        <time>2009-10-24T13:33:42Z</time>
      </trkpt>
      <trkpt lat="43.79448" lon="7.04281">
        <ele>1047</ele>
        <time>2009-10-24T13:33:48Z</time>
      </trkpt>
      <trkpt lat="43.79432" lon="7.04314">
        <ele>1043.6</ele>
        <time>2009-10-24T13:33:54Z</time>
      </trkpt>
      <trkpt lat="43.79421" lon="7.04354">
        <ele>1044.1</ele>
        <time>2009-10-24T13:34:00Z</time>
      </trkpt>
      <trkpt lat="43.79413" lon="7.04393">
        <ele>1043.2</ele>
        <time>2009-10-24T13:34:06Z</time>
      </trkpt>
      <trkpt lat="43.79406" lon="7.04432">
        <ele>1044.1</ele>
        <time>2009-10-24T13:34:12Z</time>
      </trkpt>
      <trkpt lat="43.794" lon="7.04472">
        <ele>1045.1</ele>
        <time>2009-10-24T13:34:20Z</time>
      </trkpt>
      <trkpt lat="43.79401" lon="7.04479">
        <ele>1045.1</ele>
        <time>2009-10-24T13:35:02Z</time>
      </trkpt>
    </trkseg>
  </trk>
</gpx>